<?xml version="1.0" encoding="UTF-8" standalone="no" ?>
<gpx xmlns="http://www.topografix.com/GPX/1/1" xmlns:xsi="http://www.w3.org/2001/XMLSchema-instance" xsi:schemaLocation="http://www.topografix.com/GPX/1/1 http://www.topografix.com/GPX/1/1/gpx.xsd" version="1.1" creator="VisuGPX - https://www.visugpx.com">
  <metadata>
    <name>J1 traversée aravis</name>
    <desc><![CDATA[J1 traversée aravis par PP]]></desc>
  </metadata>
  <trk>
    <name><![CDATA[J1 traversée aravis_3]]></name>
    <trkseg>
      <trkpt lat="45.80655" lon="6.39218">
        <ele>1481</ele>
        <time>2020-07-30T19:08:01Z</time>
      </trkpt>
      <trkpt lat="45.80672" lon="6.39251">
        <ele>1483</ele>
        <time>2020-07-30T19:07:46Z</time>
      </trkpt>
      <trkpt lat="45.80687" lon="6.39269">
        <ele>1484</ele>
        <time>2020-07-30T19:07:37Z</time>
      </trkpt>
      <trkpt lat="45.807" lon="6.3928">
        <ele>1484</ele>
        <time>2020-07-30T19:07:29Z</time>
      </trkpt>
      <trkpt lat="45.80724" lon="6.39294">
        <ele>1482</ele>
        <time>2020-07-30T19:07:16Z</time>
      </trkpt>
      <trkpt lat="45.80761" lon="6.39435">
        <ele>1508</ele>
        <time>2020-07-30T19:06:24Z</time>
      </trkpt>
      <trkpt lat="45.80769" lon="6.39493">
        <ele>1514</ele>
        <time>2020-07-30T19:06:03Z</time>
      </trkpt>
      <trkpt lat="45.80768" lon="6.39506">
        <ele>1517</ele>
        <time>2020-07-30T19:05:58Z</time>
      </trkpt>
      <trkpt lat="45.80763" lon="6.39514">
        <ele>1519</ele>
        <time>2020-07-30T19:05:55Z</time>
      </trkpt>
      <trkpt lat="45.80757" lon="6.39513">
        <ele>1521</ele>
        <time>2020-07-30T19:05:52Z</time>
      </trkpt>
      <trkpt lat="45.80743" lon="6.39467">
        <ele>1518</ele>
        <time>2020-07-30T19:05:34Z</time>
      </trkpt>
      <trkpt lat="45.80734" lon="6.39452">
        <ele>1518</ele>
        <time>2020-07-30T19:05:27Z</time>
      </trkpt>
      <trkpt lat="45.80726" lon="6.39444">
        <ele>1519</ele>
        <time>2020-07-30T19:05:22Z</time>
      </trkpt>
      <trkpt lat="45.80717" lon="6.39442">
        <ele>1520</ele>
        <time>2020-07-30T19:05:18Z</time>
      </trkpt>
      <trkpt lat="45.80708" lon="6.39445">
        <ele>1523</ele>
        <time>2020-07-30T19:05:13Z</time>
      </trkpt>
      <trkpt lat="45.80691" lon="6.39467">
        <ele>1532</ele>
        <time>2020-07-30T19:05:02Z</time>
      </trkpt>
      <trkpt lat="45.80688" lon="6.39477">
        <ele>1535</ele>
        <time>2020-07-30T19:04:58Z</time>
      </trkpt>
      <trkpt lat="45.80692" lon="6.39486">
        <ele>1535</ele>
        <time>2020-07-30T19:04:54Z</time>
      </trkpt>
      <trkpt lat="45.80707" lon="6.39506">
        <ele>1535</ele>
        <time>2020-07-30T19:04:44Z</time>
      </trkpt>
      <trkpt lat="45.80713" lon="6.39529">
        <ele>1537</ele>
        <time>2020-07-30T19:04:35Z</time>
      </trkpt>
      <trkpt lat="45.80709" lon="6.39533">
        <ele>1539</ele>
        <time>2020-07-30T19:04:33Z</time>
      </trkpt>
      <trkpt lat="45.8069" lon="6.39529">
        <ele>1544</ele>
        <time>2020-07-30T19:04:23Z</time>
      </trkpt>
      <trkpt lat="45.80681" lon="6.39533">
        <ele>1548</ele>
        <time>2020-07-30T19:04:19Z</time>
      </trkpt>
      <trkpt lat="45.80672" lon="6.39547">
        <ele>1554</ele>
        <time>2020-07-30T19:04:12Z</time>
      </trkpt>
      <trkpt lat="45.80668" lon="6.39558">
        <ele>1558</ele>
        <time>2020-07-30T19:04:08Z</time>
      </trkpt>
      <trkpt lat="45.80667" lon="6.39582">
        <ele>1564</ele>
        <time>2020-07-30T19:03:59Z</time>
      </trkpt>
      <trkpt lat="45.80677" lon="6.3965">
        <ele>1565</ele>
        <time>2020-07-30T19:03:35Z</time>
      </trkpt>
      <trkpt lat="45.80677" lon="6.39664">
        <ele>1567</ele>
        <time>2020-07-30T19:03:30Z</time>
      </trkpt>
      <trkpt lat="45.80673" lon="6.39673">
        <ele>1569</ele>
        <time>2020-07-30T19:03:26Z</time>
      </trkpt>
      <trkpt lat="45.80664" lon="6.39673">
        <ele>1571</ele>
        <time>2020-07-30T19:03:22Z</time>
      </trkpt>
      <trkpt lat="45.80656" lon="6.39669">
        <ele>1573</ele>
        <time>2020-07-30T19:03:18Z</time>
      </trkpt>
      <trkpt lat="45.80638" lon="6.39658">
        <ele>1578</ele>
        <time>2020-07-30T19:03:08Z</time>
      </trkpt>
      <trkpt lat="45.80627" lon="6.39646">
        <ele>1580</ele>
        <time>2020-07-30T19:03:01Z</time>
      </trkpt>
      <trkpt lat="45.8061" lon="6.39637">
        <ele>1584</ele>
        <time>2020-07-30T19:02:52Z</time>
      </trkpt>
      <trkpt lat="45.80581" lon="6.39631">
        <ele>1591</ele>
        <time>2020-07-30T19:02:37Z</time>
      </trkpt>
      <trkpt lat="45.80573" lon="6.39636">
        <ele>1594</ele>
        <time>2020-07-30T19:02:33Z</time>
      </trkpt>
      <trkpt lat="45.80571" lon="6.39647">
        <ele>1597</ele>
        <time>2020-07-30T19:02:29Z</time>
      </trkpt>
      <trkpt lat="45.80575" lon="6.39698">
        <ele>1604</ele>
        <time>2020-07-30T19:02:11Z</time>
      </trkpt>
      <trkpt lat="45.80583" lon="6.39738">
        <ele>1608</ele>
        <time>2020-07-30T19:01:56Z</time>
      </trkpt>
      <trkpt lat="45.80579" lon="6.39744">
        <ele>1610</ele>
        <time>2020-07-30T19:01:53Z</time>
      </trkpt>
      <trkpt lat="45.80538" lon="6.39727">
        <ele>1619</ele>
        <time>2020-07-30T19:01:32Z</time>
      </trkpt>
      <trkpt lat="45.80532" lon="6.39732">
        <ele>1621</ele>
        <time>2020-07-30T19:01:29Z</time>
      </trkpt>
      <trkpt lat="45.80531" lon="6.39743">
        <ele>1623</ele>
        <time>2020-07-30T19:01:25Z</time>
      </trkpt>
      <trkpt lat="45.80541" lon="6.39761">
        <ele>1622</ele>
        <time>2020-07-30T19:01:17Z</time>
      </trkpt>
      <trkpt lat="45.8055" lon="6.39796">
        <ele>1624</ele>
        <time>2020-07-30T19:01:04Z</time>
      </trkpt>
      <trkpt lat="45.80542" lon="6.39873">
        <ele>1634</ele>
        <time>2020-07-30T19:00:37Z</time>
      </trkpt>
      <trkpt lat="45.80535" lon="6.39905">
        <ele>1638</ele>
        <time>2020-07-30T19:00:25Z</time>
      </trkpt>
      <trkpt lat="45.80535" lon="6.39918">
        <ele>1640</ele>
        <time>2020-07-30T19:00:20Z</time>
      </trkpt>
      <trkpt lat="45.80544" lon="6.39979">
        <ele>1648</ele>
        <time>2020-07-30T18:59:59Z</time>
      </trkpt>
      <trkpt lat="45.80543" lon="6.39991">
        <ele>1651</ele>
        <time>2020-07-30T18:59:54Z</time>
      </trkpt>
      <trkpt lat="45.80537" lon="6.39996">
        <ele>1652</ele>
        <time>2020-07-30T18:59:51Z</time>
      </trkpt>
      <trkpt lat="45.80529" lon="6.39992">
        <ele>1653</ele>
        <time>2020-07-30T18:59:47Z</time>
      </trkpt>
      <trkpt lat="45.8048" lon="6.39925">
        <ele>1650</ele>
        <time>2020-07-30T18:59:13Z</time>
      </trkpt>
      <trkpt lat="45.80476" lon="6.39925">
        <ele>1651</ele>
        <time>2020-07-30T18:59:11Z</time>
      </trkpt>
      <trkpt lat="45.80454" lon="6.39966">
        <ele>1657</ele>
        <time>2020-07-30T18:58:53Z</time>
      </trkpt>
      <trkpt lat="45.80479" lon="6.40001">
        <ele>1659</ele>
        <time>2020-07-30T18:58:35Z</time>
      </trkpt>
      <trkpt lat="45.80485" lon="6.40016">
        <ele>1660</ele>
        <time>2020-07-30T18:58:29Z</time>
      </trkpt>
      <trkpt lat="45.80509" lon="6.40109">
        <ele>1671</ele>
        <time>2020-07-30T18:57:55Z</time>
      </trkpt>
      <trkpt lat="45.80534" lon="6.40166">
        <ele>1675</ele>
        <time>2020-07-30T18:57:31Z</time>
      </trkpt>
      <trkpt lat="45.80539" lon="6.40183">
        <ele>1676</ele>
        <time>2020-07-30T18:57:25Z</time>
      </trkpt>
      <trkpt lat="45.80556" lon="6.4038">
        <ele>1705</ele>
        <time>2020-07-30T18:56:15Z</time>
      </trkpt>
      <trkpt lat="45.80553" lon="6.40388">
        <ele>1706</ele>
        <time>2020-07-30T18:56:12Z</time>
      </trkpt>
      <trkpt lat="45.80539" lon="6.40401">
        <ele>1709</ele>
        <time>2020-07-30T18:56:04Z</time>
      </trkpt>
      <trkpt lat="45.80534" lon="6.40409">
        <ele>1710</ele>
        <time>2020-07-30T18:56:00Z</time>
      </trkpt>
      <trkpt lat="45.80529" lon="6.40429">
        <ele>1717</ele>
        <time>2020-07-30T18:55:53Z</time>
      </trkpt>
      <trkpt lat="45.80518" lon="6.40457">
        <ele>1726</ele>
        <time>2020-07-30T18:55:42Z</time>
      </trkpt>
      <trkpt lat="45.80493" lon="6.40502">
        <ele>1736</ele>
        <time>2020-07-30T18:55:21Z</time>
      </trkpt>
      <trkpt lat="45.80491" lon="6.40512">
        <ele>1738</ele>
        <time>2020-07-30T18:55:18Z</time>
      </trkpt>
      <trkpt lat="45.80492" lon="6.40545">
        <ele>1748</ele>
        <time>2020-07-30T18:55:06Z</time>
      </trkpt>
      <trkpt lat="45.80489" lon="6.40593">
        <ele>1760</ele>
        <time>2020-07-30T18:54:50Z</time>
      </trkpt>
      <trkpt lat="45.80475" lon="6.40637">
        <ele>1767</ele>
        <time>2020-07-30T18:54:33Z</time>
      </trkpt>
      <trkpt lat="45.8047" lon="6.4069">
        <ele>1780</ele>
        <time>2020-07-30T18:54:14Z</time>
      </trkpt>
      <trkpt lat="45.80472" lon="6.40738">
        <ele>1796</ele>
        <time>2020-07-30T18:53:57Z</time>
      </trkpt>
      <trkpt lat="45.80469" lon="6.40762">
        <ele>1802</ele>
        <time>2020-07-30T18:53:49Z</time>
      </trkpt>
      <trkpt lat="45.8047" lon="6.40812">
        <ele>1818</ele>
        <time>2020-07-30T18:53:31Z</time>
      </trkpt>
      <trkpt lat="45.80467" lon="6.40819">
        <ele>1819</ele>
        <time>2020-07-30T18:53:28Z</time>
      </trkpt>
      <trkpt lat="45.80471" lon="6.40841">
        <ele>1827</ele>
        <time>2020-07-30T18:53:20Z</time>
      </trkpt>
      <trkpt lat="45.80474" lon="6.40882">
        <ele>1837</ele>
        <time>2020-07-30T18:53:06Z</time>
      </trkpt>
      <trkpt lat="45.80485" lon="6.40922">
        <ele>1847</ele>
        <time>2020-07-30T18:52:51Z</time>
      </trkpt>
      <trkpt lat="45.80485" lon="6.40925">
        <ele>1848</ele>
        <time>2020-07-30T18:52:50Z</time>
      </trkpt>
      <trkpt lat="45.80478" lon="6.40934">
        <ele>1849</ele>
        <time>2020-07-30T18:52:45Z</time>
      </trkpt>
      <trkpt lat="45.80481" lon="6.40957">
        <ele>1855</ele>
        <time>2020-07-30T18:52:37Z</time>
      </trkpt>
      <trkpt lat="45.80477" lon="6.40977">
        <ele>1860</ele>
        <time>2020-07-30T18:52:30Z</time>
      </trkpt>
      <trkpt lat="45.80471" lon="6.40982">
        <ele>1862</ele>
        <time>2020-07-30T18:52:26Z</time>
      </trkpt>
      <trkpt lat="45.80467" lon="6.40982">
        <ele>1862</ele>
        <time>2020-07-30T18:52:24Z</time>
      </trkpt>
      <trkpt lat="45.80456" lon="6.40996">
        <ele>1867</ele>
        <time>2020-07-30T18:52:17Z</time>
      </trkpt>
      <trkpt lat="45.80452" lon="6.40996">
        <ele>1868</ele>
        <time>2020-07-30T18:52:15Z</time>
      </trkpt>
      <trkpt lat="45.80449" lon="6.41008">
        <ele>1873</ele>
        <time>2020-07-30T18:52:11Z</time>
      </trkpt>
      <trkpt lat="45.80447" lon="6.41008">
        <ele>1873</ele>
        <time>2020-07-30T18:52:10Z</time>
      </trkpt>
      <trkpt lat="45.80447" lon="6.4103">
        <ele>1883</ele>
        <time>2020-07-30T18:52:02Z</time>
      </trkpt>
      <trkpt lat="45.80443" lon="6.41037">
        <ele>1887</ele>
        <time>2020-07-30T18:51:59Z</time>
      </trkpt>
      <trkpt lat="45.80429" lon="6.41043">
        <ele>1892</ele>
        <time>2020-07-30T18:51:51Z</time>
      </trkpt>
      <trkpt lat="45.80422" lon="6.41061">
        <ele>1903</ele>
        <time>2020-07-30T18:51:44Z</time>
      </trkpt>
      <trkpt lat="45.80417" lon="6.41065">
        <ele>1906</ele>
        <time>2020-07-30T18:51:41Z</time>
      </trkpt>
      <trkpt lat="45.804" lon="6.41067">
        <ele>1911</ele>
        <time>2020-07-30T18:51:33Z</time>
      </trkpt>
      <trkpt lat="45.80381" lon="6.41081">
        <ele>1924</ele>
        <time>2020-07-30T18:51:22Z</time>
      </trkpt>
      <trkpt lat="45.80373" lon="6.41081">
        <ele>1926</ele>
        <time>2020-07-30T18:51:18Z</time>
      </trkpt>
      <trkpt lat="45.80358" lon="6.41072">
        <ele>1926</ele>
        <time>2020-07-30T18:51:10Z</time>
      </trkpt>
      <trkpt lat="45.80356" lon="6.41075">
        <ele>1928</ele>
        <time>2020-07-30T18:51:09Z</time>
      </trkpt>
      <trkpt lat="45.80362" lon="6.41098">
        <ele>1938</ele>
        <time>2020-07-30T18:51:00Z</time>
      </trkpt>
      <trkpt lat="45.80357" lon="6.411">
        <ele>1940</ele>
        <time>2020-07-30T18:50:57Z</time>
      </trkpt>
      <trkpt lat="45.80366" lon="6.41152">
        <ele>1963</ele>
        <time>2020-07-30T18:50:39Z</time>
      </trkpt>
      <trkpt lat="45.80379" lon="6.41156">
        <ele>1961</ele>
        <time>2020-07-30T18:50:32Z</time>
      </trkpt>
      <trkpt lat="45.80392" lon="6.41165">
        <ele>1961</ele>
        <time>2020-07-30T18:50:25Z</time>
      </trkpt>
      <trkpt lat="45.80394" lon="6.41173">
        <ele>1965</ele>
        <time>2020-07-30T18:50:22Z</time>
      </trkpt>
      <trkpt lat="45.80398" lon="6.41177">
        <ele>1966</ele>
        <time>2020-07-30T18:50:19Z</time>
      </trkpt>
      <trkpt lat="45.80388" lon="6.41194">
        <ele>1977</ele>
        <time>2020-07-30T18:50:12Z</time>
      </trkpt>
      <trkpt lat="45.80392" lon="6.41208">
        <ele>1983</ele>
        <time>2020-07-30T18:50:06Z</time>
      </trkpt>
      <trkpt lat="45.80384" lon="6.41218">
        <ele>1990</ele>
        <time>2020-07-30T18:50:01Z</time>
      </trkpt>
      <trkpt lat="45.80388" lon="6.41226">
        <ele>1993</ele>
        <time>2020-07-30T18:49:58Z</time>
      </trkpt>
      <trkpt lat="45.80384" lon="6.41234">
        <ele>1998</ele>
        <time>2020-07-30T18:49:54Z</time>
      </trkpt>
      <trkpt lat="45.80389" lon="6.41239">
        <ele>2000</ele>
        <time>2020-07-30T18:49:51Z</time>
      </trkpt>
      <trkpt lat="45.80383" lon="6.41243">
        <ele>2003</ele>
        <time>2020-07-30T18:49:48Z</time>
      </trkpt>
      <trkpt lat="45.80377" lon="6.41261">
        <ele>2012</ele>
        <time>2020-07-30T18:49:41Z</time>
      </trkpt>
      <trkpt lat="45.80369" lon="6.41276">
        <ele>2019</ele>
        <time>2020-07-30T18:49:34Z</time>
      </trkpt>
      <trkpt lat="45.80361" lon="6.41285">
        <ele>2023</ele>
        <time>2020-07-30T18:49:29Z</time>
      </trkpt>
      <trkpt lat="45.80346" lon="6.41316">
        <ele>2034</ele>
        <time>2020-07-30T18:49:16Z</time>
      </trkpt>
      <trkpt lat="45.80353" lon="6.41323">
        <ele>2037</ele>
        <time>2020-07-30T18:49:12Z</time>
      </trkpt>
      <trkpt lat="45.80347" lon="6.41333">
        <ele>2040</ele>
        <time>2020-07-30T18:49:07Z</time>
      </trkpt>
      <trkpt lat="45.80342" lon="6.4135">
        <ele>2045</ele>
        <time>2020-07-30T18:49:01Z</time>
      </trkpt>
      <trkpt lat="45.80334" lon="6.41359">
        <ele>2047</ele>
        <time>2020-07-30T18:48:56Z</time>
      </trkpt>
      <trkpt lat="45.80336" lon="6.41364">
        <ele>2050</ele>
        <time>2020-07-30T18:48:54Z</time>
      </trkpt>
      <trkpt lat="45.80329" lon="6.4137">
        <ele>2052</ele>
        <time>2020-07-30T18:48:50Z</time>
      </trkpt>
      <trkpt lat="45.8033" lon="6.41375">
        <ele>2054</ele>
        <time>2020-07-30T18:48:48Z</time>
      </trkpt>
      <trkpt lat="45.80324" lon="6.41384">
        <ele>2059</ele>
        <time>2020-07-30T18:48:43Z</time>
      </trkpt>
      <trkpt lat="45.80324" lon="6.41393">
        <ele>2062</ele>
        <time>2020-07-30T18:48:40Z</time>
      </trkpt>
      <trkpt lat="45.80329" lon="6.41399">
        <ele>2064</ele>
        <time>2020-07-30T18:48:37Z</time>
      </trkpt>
      <trkpt lat="45.80334" lon="6.41413">
        <ele>2069</ele>
        <time>2020-07-30T18:48:32Z</time>
      </trkpt>
      <trkpt lat="45.80332" lon="6.41429">
        <ele>2076</ele>
        <time>2020-07-30T18:48:26Z</time>
      </trkpt>
      <trkpt lat="45.80323" lon="6.41449">
        <ele>2086</ele>
        <time>2020-07-30T18:48:18Z</time>
      </trkpt>
      <trkpt lat="45.80325" lon="6.41453">
        <ele>2087</ele>
        <time>2020-07-30T18:48:16Z</time>
      </trkpt>
      <trkpt lat="45.8032" lon="6.4146">
        <ele>2091</ele>
        <time>2020-07-30T18:48:12Z</time>
      </trkpt>
      <trkpt lat="45.80324" lon="6.41468">
        <ele>2094</ele>
        <time>2020-07-30T18:48:09Z</time>
      </trkpt>
      <trkpt lat="45.80323" lon="6.41476">
        <ele>2097</ele>
        <time>2020-07-30T18:48:06Z</time>
      </trkpt>
      <trkpt lat="45.8033" lon="6.41486">
        <ele>2102</ele>
        <time>2020-07-30T18:48:01Z</time>
      </trkpt>
      <trkpt lat="45.80325" lon="6.41494">
        <ele>2105</ele>
        <time>2020-07-30T18:47:57Z</time>
      </trkpt>
      <trkpt lat="45.80327" lon="6.41503">
        <ele>2109</ele>
        <time>2020-07-30T18:47:54Z</time>
      </trkpt>
      <trkpt lat="45.80322" lon="6.41509">
        <ele>2112</ele>
        <time>2020-07-30T18:47:51Z</time>
      </trkpt>
      <trkpt lat="45.80322" lon="6.41514">
        <ele>2115</ele>
        <time>2020-07-30T18:47:49Z</time>
      </trkpt>
      <trkpt lat="45.80332" lon="6.41543">
        <ele>2129</ele>
        <time>2020-07-30T18:47:38Z</time>
      </trkpt>
      <trkpt lat="45.80343" lon="6.41548">
        <ele>2134</ele>
        <time>2020-07-30T18:47:32Z</time>
      </trkpt>
      <trkpt lat="45.80345" lon="6.41552">
        <ele>2137</ele>
        <time>2020-07-30T18:47:30Z</time>
      </trkpt>
      <trkpt lat="45.80343" lon="6.41569">
        <ele>2145</ele>
        <time>2020-07-30T18:47:24Z</time>
      </trkpt>
      <trkpt lat="45.80368" lon="6.41569">
        <ele>2154</ele>
        <time>2020-07-30T18:47:12Z</time>
      </trkpt>
      <trkpt lat="45.80361" lon="6.41583">
        <ele>2158</ele>
        <time>2020-07-30T18:47:06Z</time>
      </trkpt>
      <trkpt lat="45.80361" lon="6.41602">
        <ele>2168</ele>
        <time>2020-07-30T18:46:59Z</time>
      </trkpt>
      <trkpt lat="45.80353" lon="6.41611">
        <ele>2170</ele>
        <time>2020-07-30T18:46:54Z</time>
      </trkpt>
      <trkpt lat="45.80343" lon="6.41615">
        <ele>2168</ele>
        <time>2020-07-30T18:46:49Z</time>
      </trkpt>
      <trkpt lat="45.80333" lon="6.41631">
        <ele>2173</ele>
        <time>2020-07-30T18:46:41Z</time>
      </trkpt>
      <trkpt lat="45.80327" lon="6.41636">
        <ele>2176</ele>
        <time>2020-07-30T18:46:38Z</time>
      </trkpt>
      <trkpt lat="45.80333" lon="6.41642">
        <ele>2179</ele>
        <time>2020-07-30T18:46:34Z</time>
      </trkpt>
      <trkpt lat="45.80342" lon="6.41644">
        <ele>2183</ele>
        <time>2020-07-30T18:46:30Z</time>
      </trkpt>
      <trkpt lat="45.80331" lon="6.41659">
        <ele>2188</ele>
        <time>2020-07-30T18:46:22Z</time>
      </trkpt>
      <trkpt lat="45.8033" lon="6.41665">
        <ele>2191</ele>
        <time>2020-07-30T18:46:20Z</time>
      </trkpt>
      <trkpt lat="45.80339" lon="6.41667">
        <ele>2194</ele>
        <time>2020-07-30T18:46:15Z</time>
      </trkpt>
      <trkpt lat="45.80345" lon="6.41675">
        <ele>2200</ele>
        <time>2020-07-30T18:46:11Z</time>
      </trkpt>
      <trkpt lat="45.80336" lon="6.4168">
        <ele>2200</ele>
        <time>2020-07-30T18:46:06Z</time>
      </trkpt>
      <trkpt lat="45.80339" lon="6.41684">
        <ele>2204</ele>
        <time>2020-07-30T18:46:04Z</time>
      </trkpt>
      <trkpt lat="45.80364" lon="6.41694">
        <ele>2217</ele>
        <time>2020-07-30T18:45:51Z</time>
      </trkpt>
      <trkpt lat="45.80374" lon="6.41694">
        <ele>2221</ele>
        <time>2020-07-30T18:45:46Z</time>
      </trkpt>
      <trkpt lat="45.80393" lon="6.41687">
        <ele>2223</ele>
        <time>2020-07-30T18:45:37Z</time>
      </trkpt>
      <trkpt lat="45.80414" lon="6.41684">
        <ele>2228</ele>
        <time>2020-07-30T18:45:26Z</time>
      </trkpt>
      <trkpt lat="45.80407" lon="6.41703">
        <ele>2236</ele>
        <time>2020-07-30T18:45:19Z</time>
      </trkpt>
      <trkpt lat="45.80404" lon="6.4172">
        <ele>2245</ele>
        <time>2020-07-30T18:45:12Z</time>
      </trkpt>
      <trkpt lat="45.80405" lon="6.41726">
        <ele>2249</ele>
        <time>2020-07-30T18:45:10Z</time>
      </trkpt>
      <trkpt lat="45.80408" lon="6.41728">
        <ele>2251</ele>
        <time>2020-07-30T18:45:09Z</time>
      </trkpt>
      <trkpt lat="45.80413" lon="6.41724">
        <ele>2250</ele>
        <time>2020-07-30T18:45:06Z</time>
      </trkpt>
      <trkpt lat="45.80429" lon="6.41722">
        <ele>2249</ele>
        <time>2020-07-30T18:44:58Z</time>
      </trkpt>
      <trkpt lat="45.80435" lon="6.41724">
        <ele>2250</ele>
        <time>2020-07-30T18:44:55Z</time>
      </trkpt>
      <trkpt lat="45.80431" lon="6.41737">
        <ele>2258</ele>
        <time>2020-07-30T18:44:50Z</time>
      </trkpt>
      <trkpt lat="45.80412" lon="6.41772">
        <ele>2276</ele>
        <time>2020-07-30T18:44:34Z</time>
      </trkpt>
      <trkpt lat="45.80415" lon="6.41773">
        <ele>2278</ele>
        <time>2020-07-30T18:44:33Z</time>
      </trkpt>
      <trkpt lat="45.80463" lon="6.41763">
        <ele>2267</ele>
        <time>2020-07-30T18:44:08Z</time>
      </trkpt>
      <trkpt lat="45.80447" lon="6.41791">
        <ele>2279</ele>
        <time>2020-07-30T18:43:56Z</time>
      </trkpt>
      <trkpt lat="45.80421" lon="6.41824">
        <ele>2303</ele>
        <time>2020-07-30T18:43:38Z</time>
      </trkpt>
      <trkpt lat="45.80422" lon="6.41826">
        <ele>2304</ele>
        <time>2020-07-30T18:43:38Z</time>
      </trkpt>
      <trkpt lat="45.80427" lon="6.41826">
        <ele>2301</ele>
        <time>2020-07-30T18:43:35Z</time>
      </trkpt>
      <trkpt lat="45.80468" lon="6.41818">
        <ele>2280</ele>
        <time>2020-07-30T18:43:14Z</time>
      </trkpt>
      <trkpt lat="45.80475" lon="6.41819">
        <ele>2277</ele>
        <time>2020-07-30T18:43:11Z</time>
      </trkpt>
      <trkpt lat="45.80475" lon="6.41821">
        <ele>2277</ele>
        <time>2020-07-30T18:43:10Z</time>
      </trkpt>
      <trkpt lat="45.80451" lon="6.41842">
        <ele>2289</ele>
        <time>2020-07-30T18:42:56Z</time>
      </trkpt>
      <trkpt lat="45.80405" lon="6.41871">
        <ele>2298</ele>
        <time>2020-07-30T18:42:31Z</time>
      </trkpt>
      <trkpt lat="45.80369" lon="6.419">
        <ele>2302</ele>
        <time>2020-07-30T18:42:10Z</time>
      </trkpt>
      <trkpt lat="45.80354" lon="6.41908">
        <ele>2308</ele>
        <time>2020-07-30T18:42:02Z</time>
      </trkpt>
      <trkpt lat="45.80331" lon="6.41931">
        <ele>2319</ele>
        <time>2020-07-30T18:41:48Z</time>
      </trkpt>
      <trkpt lat="45.80314" lon="6.4194">
        <ele>2325</ele>
        <time>2020-07-30T18:41:39Z</time>
      </trkpt>
      <trkpt lat="45.80289" lon="6.41961">
        <ele>2336</ele>
        <time>2020-07-30T18:41:25Z</time>
      </trkpt>
      <trkpt lat="45.80265" lon="6.41976">
        <ele>2348</ele>
        <time>2020-07-30T18:41:12Z</time>
      </trkpt>
      <trkpt lat="45.80235" lon="6.42012">
        <ele>2354</ele>
        <time>2020-07-30T18:40:52Z</time>
      </trkpt>
      <trkpt lat="45.80233" lon="6.42074">
        <ele>2342</ele>
        <time>2020-07-30T18:40:30Z</time>
      </trkpt>
      <trkpt lat="45.80228" lon="6.42092">
        <ele>2337</ele>
        <time>2020-07-30T18:40:24Z</time>
      </trkpt>
      <trkpt lat="45.80226" lon="6.4212">
        <ele>2331</ele>
        <time>2020-07-30T18:40:14Z</time>
      </trkpt>
      <trkpt lat="45.80228" lon="6.42127">
        <ele>2330</ele>
        <time>2020-07-30T18:40:11Z</time>
      </trkpt>
      <trkpt lat="45.80226" lon="6.42161">
        <ele>2322</ele>
        <time>2020-07-30T18:39:59Z</time>
      </trkpt>
      <trkpt lat="45.80218" lon="6.42187">
        <ele>2313</ele>
        <time>2020-07-30T18:39:49Z</time>
      </trkpt>
      <trkpt lat="45.80217" lon="6.422">
        <ele>2309</ele>
        <time>2020-07-30T18:39:45Z</time>
      </trkpt>
      <trkpt lat="45.80224" lon="6.42224">
        <ele>2303</ele>
        <time>2020-07-30T18:39:36Z</time>
      </trkpt>
      <trkpt lat="45.80222" lon="6.42225">
        <ele>2302</ele>
        <time>2020-07-30T18:39:35Z</time>
      </trkpt>
      <trkpt lat="45.80222" lon="6.42238">
        <ele>2298</ele>
        <time>2020-07-30T18:39:30Z</time>
      </trkpt>
      <trkpt lat="45.80225" lon="6.4224">
        <ele>2299</ele>
        <time>2020-07-30T18:39:28Z</time>
      </trkpt>
      <trkpt lat="45.80223" lon="6.4225">
        <ele>2295</ele>
        <time>2020-07-30T18:39:25Z</time>
      </trkpt>
      <trkpt lat="45.80224" lon="6.42314">
        <ele>2274</ele>
        <time>2020-07-30T18:39:02Z</time>
      </trkpt>
      <trkpt lat="45.80222" lon="6.42317">
        <ele>2273</ele>
        <time>2020-07-30T18:39:01Z</time>
      </trkpt>
      <trkpt lat="45.80226" lon="6.42321">
        <ele>2273</ele>
        <time>2020-07-30T18:38:59Z</time>
      </trkpt>
      <trkpt lat="45.80228" lon="6.42331">
        <ele>2271</ele>
        <time>2020-07-30T18:38:55Z</time>
      </trkpt>
      <trkpt lat="45.80233" lon="6.42335">
        <ele>2272</ele>
        <time>2020-07-30T18:38:52Z</time>
      </trkpt>
      <trkpt lat="45.80237" lon="6.42351">
        <ele>2268</ele>
        <time>2020-07-30T18:38:46Z</time>
      </trkpt>
      <trkpt lat="45.80245" lon="6.42359">
        <ele>2270</ele>
        <time>2020-07-30T18:38:41Z</time>
      </trkpt>
      <trkpt lat="45.80249" lon="6.4236">
        <ele>2271</ele>
        <time>2020-07-30T18:38:39Z</time>
      </trkpt>
      <trkpt lat="45.80258" lon="6.42371">
        <ele>2264</ele>
        <time>2020-07-30T18:38:33Z</time>
      </trkpt>
      <trkpt lat="45.80269" lon="6.4239">
        <ele>2254</ele>
        <time>2020-07-30T18:38:25Z</time>
      </trkpt>
      <trkpt lat="45.80279" lon="6.42399">
        <ele>2248</ele>
        <time>2020-07-30T18:38:19Z</time>
      </trkpt>
      <trkpt lat="45.8028" lon="6.42408">
        <ele>2246</ele>
        <time>2020-07-30T18:38:16Z</time>
      </trkpt>
      <trkpt lat="45.80289" lon="6.42415">
        <ele>2242</ele>
        <time>2020-07-30T18:38:10Z</time>
      </trkpt>
      <trkpt lat="45.80302" lon="6.42431">
        <ele>2229</ele>
        <time>2020-07-30T18:38:02Z</time>
      </trkpt>
      <trkpt lat="45.80307" lon="6.42432">
        <ele>2227</ele>
        <time>2020-07-30T18:37:59Z</time>
      </trkpt>
      <trkpt lat="45.80304" lon="6.42442">
        <ele>2223</ele>
        <time>2020-07-30T18:37:56Z</time>
      </trkpt>
      <trkpt lat="45.80317" lon="6.42465">
        <ele>2208</ele>
        <time>2020-07-30T18:37:45Z</time>
      </trkpt>
      <trkpt lat="45.80327" lon="6.42466">
        <ele>2206</ele>
        <time>2020-07-30T18:37:40Z</time>
      </trkpt>
      <trkpt lat="45.8033" lon="6.42471">
        <ele>2203</ele>
        <time>2020-07-30T18:37:38Z</time>
      </trkpt>
      <trkpt lat="45.80329" lon="6.42475">
        <ele>2202</ele>
        <time>2020-07-30T18:37:36Z</time>
      </trkpt>
      <trkpt lat="45.80336" lon="6.4248">
        <ele>2197</ele>
        <time>2020-07-30T18:37:33Z</time>
      </trkpt>
      <trkpt lat="45.80341" lon="6.42474">
        <ele>2197</ele>
        <time>2020-07-30T18:37:29Z</time>
      </trkpt>
      <trkpt lat="45.80345" lon="6.42477">
        <ele>2194</ele>
        <time>2020-07-30T18:37:27Z</time>
      </trkpt>
      <trkpt lat="45.80345" lon="6.42475">
        <ele>2195</ele>
        <time>2020-07-30T18:37:26Z</time>
      </trkpt>
      <trkpt lat="45.80352" lon="6.42472">
        <ele>2192</ele>
        <time>2020-07-30T18:37:23Z</time>
      </trkpt>
      <trkpt lat="45.80364" lon="6.42489">
        <ele>2181</ele>
        <time>2020-07-30T18:37:14Z</time>
      </trkpt>
      <trkpt lat="45.80383" lon="6.4249">
        <ele>2172</ele>
        <time>2020-07-30T18:37:05Z</time>
      </trkpt>
      <trkpt lat="45.80402" lon="6.42501">
        <ele>2161</ele>
        <time>2020-07-30T18:36:54Z</time>
      </trkpt>
      <trkpt lat="45.80412" lon="6.425">
        <ele>2158</ele>
        <time>2020-07-30T18:36:49Z</time>
      </trkpt>
      <trkpt lat="45.80427" lon="6.42494">
        <ele>2148</ele>
        <time>2020-07-30T18:36:42Z</time>
      </trkpt>
      <trkpt lat="45.80434" lon="6.42495">
        <ele>2143</ele>
        <time>2020-07-30T18:36:38Z</time>
      </trkpt>
      <trkpt lat="45.8044" lon="6.42489">
        <ele>2139</ele>
        <time>2020-07-30T18:36:34Z</time>
      </trkpt>
      <trkpt lat="45.80456" lon="6.42491">
        <ele>2127</ele>
        <time>2020-07-30T18:36:26Z</time>
      </trkpt>
      <trkpt lat="45.80468" lon="6.4248">
        <ele>2120</ele>
        <time>2020-07-30T18:36:19Z</time>
      </trkpt>
      <trkpt lat="45.80475" lon="6.42482">
        <ele>2114</ele>
        <time>2020-07-30T18:36:16Z</time>
      </trkpt>
      <trkpt lat="45.8048" lon="6.42475">
        <ele>2112</ele>
        <time>2020-07-30T18:36:12Z</time>
      </trkpt>
      <trkpt lat="45.8049" lon="6.42478">
        <ele>2105</ele>
        <time>2020-07-30T18:36:07Z</time>
      </trkpt>
      <trkpt lat="45.80498" lon="6.42476">
        <ele>2099</ele>
        <time>2020-07-30T18:36:03Z</time>
      </trkpt>
      <trkpt lat="45.80499" lon="6.42472">
        <ele>2100</ele>
        <time>2020-07-30T18:36:02Z</time>
      </trkpt>
      <trkpt lat="45.80492" lon="6.42447">
        <ele>2110</ele>
        <time>2020-07-30T18:35:52Z</time>
      </trkpt>
      <trkpt lat="45.80494" lon="6.42442">
        <ele>2110</ele>
        <time>2020-07-30T18:35:50Z</time>
      </trkpt>
      <trkpt lat="45.80489" lon="6.42426">
        <ele>2117</ele>
        <time>2020-07-30T18:35:44Z</time>
      </trkpt>
      <trkpt lat="45.80499" lon="6.42422">
        <ele>2112</ele>
        <time>2020-07-30T18:35:39Z</time>
      </trkpt>
      <trkpt lat="45.80504" lon="6.42424">
        <ele>2109</ele>
        <time>2020-07-30T18:35:36Z</time>
      </trkpt>
      <trkpt lat="45.80508" lon="6.4242">
        <ele>2108</ele>
        <time>2020-07-30T18:35:34Z</time>
      </trkpt>
      <trkpt lat="45.80517" lon="6.42427">
        <ele>2102</ele>
        <time>2020-07-30T18:35:29Z</time>
      </trkpt>
      <trkpt lat="45.80523" lon="6.42427">
        <ele>2099</ele>
        <time>2020-07-30T18:35:26Z</time>
      </trkpt>
      <trkpt lat="45.80523" lon="6.42418">
        <ele>2101</ele>
        <time>2020-07-30T18:35:23Z</time>
      </trkpt>
      <trkpt lat="45.8053" lon="6.42422">
        <ele>2097</ele>
        <time>2020-07-30T18:35:19Z</time>
      </trkpt>
      <trkpt lat="45.80539" lon="6.42421">
        <ele>2092</ele>
        <time>2020-07-30T18:35:14Z</time>
      </trkpt>
      <trkpt lat="45.80541" lon="6.42411">
        <ele>2092</ele>
        <time>2020-07-30T18:35:11Z</time>
      </trkpt>
      <trkpt lat="45.80544" lon="6.42408">
        <ele>2091</ele>
        <time>2020-07-30T18:35:09Z</time>
      </trkpt>
      <trkpt lat="45.80576" lon="6.42428">
        <ele>2073</ele>
        <time>2020-07-30T18:34:51Z</time>
      </trkpt>
      <trkpt lat="45.80585" lon="6.42441">
        <ele>2067</ele>
        <time>2020-07-30T18:34:45Z</time>
      </trkpt>
      <trkpt lat="45.80586" lon="6.42449">
        <ele>2066</ele>
        <time>2020-07-30T18:34:42Z</time>
      </trkpt>
      <trkpt lat="45.80598" lon="6.4248">
        <ele>2061</ele>
        <time>2020-07-30T18:34:30Z</time>
      </trkpt>
      <trkpt lat="45.80607" lon="6.42495">
        <ele>2059</ele>
        <time>2020-07-30T18:34:23Z</time>
      </trkpt>
      <trkpt lat="45.80624" lon="6.42501">
        <ele>2059</ele>
        <time>2020-07-30T18:34:14Z</time>
      </trkpt>
      <trkpt lat="45.80651" lon="6.42505">
        <ele>2057</ele>
        <time>2020-07-30T18:34:00Z</time>
      </trkpt>
      <trkpt lat="45.80692" lon="6.42504">
        <ele>2064</ele>
        <time>2020-07-30T18:33:40Z</time>
      </trkpt>
      <trkpt lat="45.80744" lon="6.42507">
        <ele>2074</ele>
        <time>2020-07-30T18:33:14Z</time>
      </trkpt>
      <trkpt lat="45.80772" lon="6.42522">
        <ele>2071</ele>
        <time>2020-07-30T18:32:59Z</time>
      </trkpt>
      <trkpt lat="45.80793" lon="6.42526">
        <ele>2070</ele>
        <time>2020-07-30T18:32:48Z</time>
      </trkpt>
      <trkpt lat="45.80813" lon="6.42533">
        <ele>2071</ele>
        <time>2020-07-30T18:32:38Z</time>
      </trkpt>
      <trkpt lat="45.80822" lon="6.42541">
        <ele>2072</ele>
        <time>2020-07-30T18:32:33Z</time>
      </trkpt>
      <trkpt lat="45.80849" lon="6.42541">
        <ele>2075</ele>
        <time>2020-07-30T18:32:19Z</time>
      </trkpt>
      <trkpt lat="45.80864" lon="6.42539">
        <ele>2077</ele>
        <time>2020-07-30T18:32:12Z</time>
      </trkpt>
      <trkpt lat="45.80891" lon="6.4253">
        <ele>2079</ele>
        <time>2020-07-30T18:31:58Z</time>
      </trkpt>
      <trkpt lat="45.80899" lon="6.42522">
        <ele>2079</ele>
        <time>2020-07-30T18:31:53Z</time>
      </trkpt>
      <trkpt lat="45.80937" lon="6.42495">
        <ele>2082</ele>
        <time>2020-07-30T18:31:32Z</time>
      </trkpt>
      <trkpt lat="45.80947" lon="6.4248">
        <ele>2081</ele>
        <time>2020-07-30T18:31:24Z</time>
      </trkpt>
      <trkpt lat="45.80966" lon="6.42466">
        <ele>2082</ele>
        <time>2020-07-30T18:31:14Z</time>
      </trkpt>
      <trkpt lat="45.81026" lon="6.42391">
        <ele>2075</ele>
        <time>2020-07-30T18:30:34Z</time>
      </trkpt>
      <trkpt lat="45.81041" lon="6.42378">
        <ele>2072</ele>
        <time>2020-07-30T18:30:25Z</time>
      </trkpt>
      <trkpt lat="45.81046" lon="6.42363">
        <ele>2067</ele>
        <time>2020-07-30T18:30:19Z</time>
      </trkpt>
      <trkpt lat="45.81066" lon="6.42368">
        <ele>2071</ele>
        <time>2020-07-30T18:30:09Z</time>
      </trkpt>
      <trkpt lat="45.81073" lon="6.42366">
        <ele>2070</ele>
        <time>2020-07-30T18:30:06Z</time>
      </trkpt>
      <trkpt lat="45.81086" lon="6.42371">
        <ele>2072</ele>
        <time>2020-07-30T18:29:59Z</time>
      </trkpt>
      <trkpt lat="45.81104" lon="6.42374">
        <ele>2065</ele>
        <time>2020-07-30T18:29:50Z</time>
      </trkpt>
      <trkpt lat="45.81108" lon="6.42372">
        <ele>2062</ele>
        <time>2020-07-30T18:29:48Z</time>
      </trkpt>
      <trkpt lat="45.81113" lon="6.42363">
        <ele>2056</ele>
        <time>2020-07-30T18:29:44Z</time>
      </trkpt>
      <trkpt lat="45.81122" lon="6.42368">
        <ele>2054</ele>
        <time>2020-07-30T18:29:39Z</time>
      </trkpt>
      <trkpt lat="45.81131" lon="6.42365">
        <ele>2048</ele>
        <time>2020-07-30T18:29:34Z</time>
      </trkpt>
      <trkpt lat="45.81138" lon="6.42367">
        <ele>2046</ele>
        <time>2020-07-30T18:29:31Z</time>
      </trkpt>
      <trkpt lat="45.81144" lon="6.42372">
        <ele>2045</ele>
        <time>2020-07-30T18:29:27Z</time>
      </trkpt>
      <trkpt lat="45.81153" lon="6.42373">
        <ele>2041</ele>
        <time>2020-07-30T18:29:23Z</time>
      </trkpt>
      <trkpt lat="45.81167" lon="6.42383">
        <ele>2039</ele>
        <time>2020-07-30T18:29:15Z</time>
      </trkpt>
      <trkpt lat="45.81172" lon="6.42395">
        <ele>2042</ele>
        <time>2020-07-30T18:29:10Z</time>
      </trkpt>
      <trkpt lat="45.81183" lon="6.42391">
        <ele>2037</ele>
        <time>2020-07-30T18:29:04Z</time>
      </trkpt>
      <trkpt lat="45.81185" lon="6.42388">
        <ele>2035</ele>
        <time>2020-07-30T18:29:03Z</time>
      </trkpt>
      <trkpt lat="45.81193" lon="6.42388">
        <ele>2032</ele>
        <time>2020-07-30T18:28:59Z</time>
      </trkpt>
      <trkpt lat="45.81198" lon="6.42384">
        <ele>2029</ele>
        <time>2020-07-30T18:28:56Z</time>
      </trkpt>
      <trkpt lat="45.81202" lon="6.42384">
        <ele>2027</ele>
        <time>2020-07-30T18:28:54Z</time>
      </trkpt>
      <trkpt lat="45.81209" lon="6.42386">
        <ele>2026</ele>
        <time>2020-07-30T18:28:50Z</time>
      </trkpt>
      <trkpt lat="45.81214" lon="6.42397">
        <ele>2028</ele>
        <time>2020-07-30T18:28:46Z</time>
      </trkpt>
      <trkpt lat="45.81217" lon="6.42399">
        <ele>2028</ele>
        <time>2020-07-30T18:28:44Z</time>
      </trkpt>
      <trkpt lat="45.8122" lon="6.42398">
        <ele>2027</ele>
        <time>2020-07-30T18:28:43Z</time>
      </trkpt>
      <trkpt lat="45.81253" lon="6.42407">
        <ele>2018</ele>
        <time>2020-07-30T18:28:26Z</time>
      </trkpt>
      <trkpt lat="45.81287" lon="6.42421">
        <ele>2001</ele>
        <time>2020-07-30T18:28:08Z</time>
      </trkpt>
      <trkpt lat="45.81296" lon="6.42421">
        <ele>1995</ele>
        <time>2020-07-30T18:28:04Z</time>
      </trkpt>
      <trkpt lat="45.81306" lon="6.42436">
        <ele>1984</ele>
        <time>2020-07-30T18:27:56Z</time>
      </trkpt>
      <trkpt lat="45.81301" lon="6.42441">
        <ele>1987</ele>
        <time>2020-07-30T18:27:53Z</time>
      </trkpt>
      <trkpt lat="45.81296" lon="6.42439">
        <ele>1991</ele>
        <time>2020-07-30T18:27:51Z</time>
      </trkpt>
      <trkpt lat="45.8129" lon="6.42445">
        <ele>1994</ele>
        <time>2020-07-30T18:27:47Z</time>
      </trkpt>
      <trkpt lat="45.8129" lon="6.4245">
        <ele>1993</ele>
        <time>2020-07-30T18:27:45Z</time>
      </trkpt>
      <trkpt lat="45.81294" lon="6.42455">
        <ele>1988</ele>
        <time>2020-07-30T18:27:43Z</time>
      </trkpt>
      <trkpt lat="45.81302" lon="6.42459">
        <ele>1980</ele>
        <time>2020-07-30T18:27:38Z</time>
      </trkpt>
      <trkpt lat="45.81294" lon="6.42468">
        <ele>1985</ele>
        <time>2020-07-30T18:27:33Z</time>
      </trkpt>
      <trkpt lat="45.81296" lon="6.42474">
        <ele>1982</ele>
        <time>2020-07-30T18:27:31Z</time>
      </trkpt>
      <trkpt lat="45.81295" lon="6.42492">
        <ele>1979</ele>
        <time>2020-07-30T18:27:25Z</time>
      </trkpt>
      <trkpt lat="45.81286" lon="6.42534">
        <ele>1986</ele>
        <time>2020-07-30T18:27:09Z</time>
      </trkpt>
      <trkpt lat="45.81281" lon="6.42542">
        <ele>1992</ele>
        <time>2020-07-30T18:27:06Z</time>
      </trkpt>
      <trkpt lat="45.81278" lon="6.42556">
        <ele>1995</ele>
        <time>2020-07-30T18:27:01Z</time>
      </trkpt>
      <trkpt lat="45.81278" lon="6.42597">
        <ele>1991</ele>
        <time>2020-07-30T18:26:46Z</time>
      </trkpt>
      <trkpt lat="45.81283" lon="6.42619">
        <ele>1983</ele>
        <time>2020-07-30T18:26:38Z</time>
      </trkpt>
      <trkpt lat="45.81283" lon="6.42638">
        <ele>1980</ele>
        <time>2020-07-30T18:26:32Z</time>
      </trkpt>
      <trkpt lat="45.81282" lon="6.42652">
        <ele>1979</ele>
        <time>2020-07-30T18:26:27Z</time>
      </trkpt>
      <trkpt lat="45.81276" lon="6.42674">
        <ele>1980</ele>
        <time>2020-07-30T18:26:18Z</time>
      </trkpt>
      <trkpt lat="45.81285" lon="6.42691">
        <ele>1973</ele>
        <time>2020-07-30T18:26:11Z</time>
      </trkpt>
      <trkpt lat="45.8128" lon="6.42714">
        <ele>1975</ele>
        <time>2020-07-30T18:26:03Z</time>
      </trkpt>
      <trkpt lat="45.81276" lon="6.42769">
        <ele>1974</ele>
        <time>2020-07-30T18:25:43Z</time>
      </trkpt>
      <trkpt lat="45.81278" lon="6.42783">
        <ele>1973</ele>
        <time>2020-07-30T18:25:38Z</time>
      </trkpt>
      <trkpt lat="45.81292" lon="6.4283">
        <ele>1969</ele>
        <time>2020-07-30T18:25:20Z</time>
      </trkpt>
      <trkpt lat="45.81309" lon="6.4286">
        <ele>1966</ele>
        <time>2020-07-30T18:25:07Z</time>
      </trkpt>
      <trkpt lat="45.81329" lon="6.42885">
        <ele>1970</ele>
        <time>2020-07-30T18:24:54Z</time>
      </trkpt>
      <trkpt lat="45.81328" lon="6.42889">
        <ele>1970</ele>
        <time>2020-07-30T18:24:52Z</time>
      </trkpt>
      <trkpt lat="45.81333" lon="6.42901">
        <ele>1972</ele>
        <time>2020-07-30T18:24:47Z</time>
      </trkpt>
      <trkpt lat="45.81341" lon="6.42905">
        <ele>1974</ele>
        <time>2020-07-30T18:24:43Z</time>
      </trkpt>
      <trkpt lat="45.81349" lon="6.42905">
        <ele>1975</ele>
        <time>2020-07-30T18:24:39Z</time>
      </trkpt>
      <trkpt lat="45.81351" lon="6.42917">
        <ele>1977</ele>
        <time>2020-07-30T18:24:35Z</time>
      </trkpt>
      <trkpt lat="45.81376" lon="6.4295">
        <ele>1973</ele>
        <time>2020-07-30T18:24:18Z</time>
      </trkpt>
      <trkpt lat="45.81443" lon="6.42956">
        <ele>1992</ele>
        <time>2020-07-30T18:23:44Z</time>
      </trkpt>
      <trkpt lat="45.8148" lon="6.42968">
        <ele>2002</ele>
        <time>2020-07-30T18:23:25Z</time>
      </trkpt>
      <trkpt lat="45.81491" lon="6.42969">
        <ele>2006</ele>
        <time>2020-07-30T18:23:20Z</time>
      </trkpt>
      <trkpt lat="45.81511" lon="6.42978">
        <ele>2007</ele>
        <time>2020-07-30T18:23:09Z</time>
      </trkpt>
      <trkpt lat="45.81522" lon="6.42977">
        <ele>2004</ele>
        <time>2020-07-30T18:23:04Z</time>
      </trkpt>
      <trkpt lat="45.81539" lon="6.42982">
        <ele>2000</ele>
        <time>2020-07-30T18:22:55Z</time>
      </trkpt>
      <trkpt lat="45.81554" lon="6.42976">
        <ele>1997</ele>
        <time>2020-07-30T18:22:47Z</time>
      </trkpt>
      <trkpt lat="45.81566" lon="6.4298">
        <ele>1993</ele>
        <time>2020-07-30T18:22:41Z</time>
      </trkpt>
      <trkpt lat="45.81573" lon="6.42976">
        <ele>1992</ele>
        <time>2020-07-30T18:22:37Z</time>
      </trkpt>
      <trkpt lat="45.81576" lon="6.4298">
        <ele>1991</ele>
        <time>2020-07-30T18:22:35Z</time>
      </trkpt>
      <trkpt lat="45.81579" lon="6.42977">
        <ele>1991</ele>
        <time>2020-07-30T18:22:33Z</time>
      </trkpt>
      <trkpt lat="45.81578" lon="6.42973">
        <ele>1991</ele>
        <time>2020-07-30T18:22:32Z</time>
      </trkpt>
      <trkpt lat="45.81582" lon="6.42966">
        <ele>1991</ele>
        <time>2020-07-30T18:22:29Z</time>
      </trkpt>
      <trkpt lat="45.81594" lon="6.42956">
        <ele>1991</ele>
        <time>2020-07-30T18:22:22Z</time>
      </trkpt>
      <trkpt lat="45.81604" lon="6.42952">
        <ele>1991</ele>
        <time>2020-07-30T18:22:17Z</time>
      </trkpt>
      <trkpt lat="45.8162" lon="6.42951">
        <ele>1990</ele>
        <time>2020-07-30T18:22:09Z</time>
      </trkpt>
      <trkpt lat="45.81629" lon="6.42946">
        <ele>1991</ele>
        <time>2020-07-30T18:22:04Z</time>
      </trkpt>
      <trkpt lat="45.81643" lon="6.42944">
        <ele>1991</ele>
        <time>2020-07-30T18:21:57Z</time>
      </trkpt>
      <trkpt lat="45.81655" lon="6.42939">
        <ele>1992</ele>
        <time>2020-07-30T18:21:51Z</time>
      </trkpt>
      <trkpt lat="45.81664" lon="6.42939">
        <ele>1992</ele>
        <time>2020-07-30T18:21:46Z</time>
      </trkpt>
      <trkpt lat="45.81669" lon="6.42943">
        <ele>1991</ele>
        <time>2020-07-30T18:21:43Z</time>
      </trkpt>
      <trkpt lat="45.81687" lon="6.42949">
        <ele>1995</ele>
        <time>2020-07-30T18:21:34Z</time>
      </trkpt>
      <trkpt lat="45.81697" lon="6.42961">
        <ele>1996</ele>
        <time>2020-07-30T18:21:27Z</time>
      </trkpt>
      <trkpt lat="45.81702" lon="6.42963">
        <ele>1998</ele>
        <time>2020-07-30T18:21:25Z</time>
      </trkpt>
      <trkpt lat="45.817" lon="6.42967">
        <ele>1996</ele>
        <time>2020-07-30T18:21:23Z</time>
      </trkpt>
      <trkpt lat="45.81707" lon="6.42973">
        <ele>1999</ele>
        <time>2020-07-30T18:21:19Z</time>
      </trkpt>
      <trkpt lat="45.81716" lon="6.42974">
        <ele>2003</ele>
        <time>2020-07-30T18:21:14Z</time>
      </trkpt>
      <trkpt lat="45.81723" lon="6.42978">
        <ele>2007</ele>
        <time>2020-07-30T18:21:11Z</time>
      </trkpt>
      <trkpt lat="45.81752" lon="6.43003">
        <ele>2023</ele>
        <time>2020-07-30T18:20:54Z</time>
      </trkpt>
      <trkpt lat="45.81765" lon="6.4301">
        <ele>2023</ele>
        <time>2020-07-30T18:20:47Z</time>
      </trkpt>
      <trkpt lat="45.81786" lon="6.43014">
        <ele>2029</ele>
        <time>2020-07-30T18:20:36Z</time>
      </trkpt>
      <trkpt lat="45.81801" lon="6.43011">
        <ele>2035</ele>
        <time>2020-07-30T18:20:29Z</time>
      </trkpt>
      <trkpt lat="45.81809" lon="6.43012">
        <ele>2038</ele>
        <time>2020-07-30T18:20:25Z</time>
      </trkpt>
      <trkpt lat="45.81814" lon="6.43009">
        <ele>2040</ele>
        <time>2020-07-30T18:20:22Z</time>
      </trkpt>
      <trkpt lat="45.8183" lon="6.4301">
        <ele>2045</ele>
        <time>2020-07-30T18:20:14Z</time>
      </trkpt>
      <trkpt lat="45.8184" lon="6.43008">
        <ele>2048</ele>
        <time>2020-07-30T18:20:09Z</time>
      </trkpt>
      <trkpt lat="45.81869" lon="6.43015">
        <ele>2051</ele>
        <time>2020-07-30T18:19:54Z</time>
      </trkpt>
      <trkpt lat="45.81902" lon="6.43028">
        <ele>2056</ele>
        <time>2020-07-30T18:19:37Z</time>
      </trkpt>
      <trkpt lat="45.81908" lon="6.43026">
        <ele>2058</ele>
        <time>2020-07-30T18:19:34Z</time>
      </trkpt>
      <trkpt lat="45.8193" lon="6.43036">
        <ele>2063</ele>
        <time>2020-07-30T18:19:22Z</time>
      </trkpt>
      <trkpt lat="45.81944" lon="6.43038">
        <ele>2066</ele>
        <time>2020-07-30T18:19:15Z</time>
      </trkpt>
      <trkpt lat="45.81951" lon="6.43037">
        <ele>2067</ele>
        <time>2020-07-30T18:19:12Z</time>
      </trkpt>
      <trkpt lat="45.81966" lon="6.43017">
        <ele>2068</ele>
        <time>2020-07-30T18:19:02Z</time>
      </trkpt>
      <trkpt lat="45.81972" lon="6.43013">
        <ele>2068</ele>
        <time>2020-07-30T18:18:58Z</time>
      </trkpt>
      <trkpt lat="45.81984" lon="6.43009">
        <ele>2070</ele>
        <time>2020-07-30T18:18:52Z</time>
      </trkpt>
      <trkpt lat="45.81996" lon="6.4301">
        <ele>2072</ele>
        <time>2020-07-30T18:18:46Z</time>
      </trkpt>
      <trkpt lat="45.82004" lon="6.43014">
        <ele>2073</ele>
        <time>2020-07-30T18:18:42Z</time>
      </trkpt>
      <trkpt lat="45.82036" lon="6.43007">
        <ele>2072</ele>
        <time>2020-07-30T18:18:26Z</time>
      </trkpt>
      <trkpt lat="45.82051" lon="6.42999">
        <ele>2071</ele>
        <time>2020-07-30T18:18:18Z</time>
      </trkpt>
      <trkpt lat="45.82105" lon="6.42982">
        <ele>2059</ele>
        <time>2020-07-30T18:17:50Z</time>
      </trkpt>
      <trkpt lat="45.82122" lon="6.42971">
        <ele>2050</ele>
        <time>2020-07-30T18:17:41Z</time>
      </trkpt>
      <trkpt lat="45.82124" lon="6.42989">
        <ele>2051</ele>
        <time>2020-07-30T18:17:34Z</time>
      </trkpt>
      <trkpt lat="45.82131" lon="6.42998">
        <ele>2048</ele>
        <time>2020-07-30T18:17:30Z</time>
      </trkpt>
      <trkpt lat="45.82133" lon="6.43015">
        <ele>2044</ele>
        <time>2020-07-30T18:17:24Z</time>
      </trkpt>
      <trkpt lat="45.82127" lon="6.43032">
        <ele>2045</ele>
        <time>2020-07-30T18:17:17Z</time>
      </trkpt>
      <trkpt lat="45.82125" lon="6.43048">
        <ele>2044</ele>
        <time>2020-07-30T18:17:11Z</time>
      </trkpt>
      <trkpt lat="45.82117" lon="6.43062">
        <ele>2048</ele>
        <time>2020-07-30T18:17:05Z</time>
      </trkpt>
      <trkpt lat="45.82113" lon="6.43078">
        <ele>2049</ele>
        <time>2020-07-30T18:16:59Z</time>
      </trkpt>
      <trkpt lat="45.82111" lon="6.43103">
        <ele>2042</ele>
        <time>2020-07-30T18:16:50Z</time>
      </trkpt>
      <trkpt lat="45.82104" lon="6.43106">
        <ele>2048</ele>
        <time>2020-07-30T18:16:47Z</time>
      </trkpt>
      <trkpt lat="45.82084" lon="6.43143">
        <ele>2052</ele>
        <time>2020-07-30T18:16:30Z</time>
      </trkpt>
      <trkpt lat="45.82078" lon="6.43167">
        <ele>2044</ele>
        <time>2020-07-30T18:16:21Z</time>
      </trkpt>
      <trkpt lat="45.82068" lon="6.43188">
        <ele>2034</ele>
        <time>2020-07-30T18:16:12Z</time>
      </trkpt>
      <trkpt lat="45.82072" lon="6.4321">
        <ele>2025</ele>
        <time>2020-07-30T18:16:05Z</time>
      </trkpt>
      <trkpt lat="45.82076" lon="6.43215">
        <ele>2023</ele>
        <time>2020-07-30T18:16:02Z</time>
      </trkpt>
      <trkpt lat="45.82074" lon="6.43226">
        <ele>2018</ele>
        <time>2020-07-30T18:15:58Z</time>
      </trkpt>
      <trkpt lat="45.82076" lon="6.43233">
        <ele>2015</ele>
        <time>2020-07-30T18:15:55Z</time>
      </trkpt>
      <trkpt lat="45.82071" lon="6.43238">
        <ele>2012</ele>
        <time>2020-07-30T18:15:52Z</time>
      </trkpt>
      <trkpt lat="45.82068" lon="6.43252">
        <ele>2005</ele>
        <time>2020-07-30T18:15:47Z</time>
      </trkpt>
      <trkpt lat="45.82071" lon="6.43265">
        <ele>2001</ele>
        <time>2020-07-30T18:15:42Z</time>
      </trkpt>
      <trkpt lat="45.82074" lon="6.43265">
        <ele>2002</ele>
        <time>2020-07-30T18:15:41Z</time>
      </trkpt>
      <trkpt lat="45.82077" lon="6.43281">
        <ele>1997</ele>
        <time>2020-07-30T18:15:35Z</time>
      </trkpt>
      <trkpt lat="45.82086" lon="6.43297">
        <ele>1992</ele>
        <time>2020-07-30T18:15:28Z</time>
      </trkpt>
      <trkpt lat="45.82093" lon="6.43321">
        <ele>1983</ele>
        <time>2020-07-30T18:15:19Z</time>
      </trkpt>
      <trkpt lat="45.82099" lon="6.43328">
        <ele>1981</ele>
        <time>2020-07-30T18:15:15Z</time>
      </trkpt>
      <trkpt lat="45.82101" lon="6.43327">
        <ele>1981</ele>
        <time>2020-07-30T18:15:14Z</time>
      </trkpt>
      <trkpt lat="45.82103" lon="6.43335">
        <ele>1978</ele>
        <time>2020-07-30T18:15:11Z</time>
      </trkpt>
      <trkpt lat="45.82117" lon="6.43343">
        <ele>1976</ele>
        <time>2020-07-30T18:15:03Z</time>
      </trkpt>
      <trkpt lat="45.8213" lon="6.43363">
        <ele>1971</ele>
        <time>2020-07-30T18:14:54Z</time>
      </trkpt>
      <trkpt lat="45.82136" lon="6.43378">
        <ele>1968</ele>
        <time>2020-07-30T18:14:48Z</time>
      </trkpt>
      <trkpt lat="45.8214" lon="6.43398">
        <ele>1965</ele>
        <time>2020-07-30T18:14:41Z</time>
      </trkpt>
      <trkpt lat="45.82152" lon="6.43427">
        <ele>1962</ele>
        <time>2020-07-30T18:14:29Z</time>
      </trkpt>
      <trkpt lat="45.82174" lon="6.43454">
        <ele>1961</ele>
        <time>2020-07-30T18:14:14Z</time>
      </trkpt>
      <trkpt lat="45.8219" lon="6.43482">
        <ele>1955</ele>
        <time>2020-07-30T18:14:02Z</time>
      </trkpt>
      <trkpt lat="45.82206" lon="6.4349">
        <ele>1955</ele>
        <time>2020-07-30T18:13:53Z</time>
      </trkpt>
      <trkpt lat="45.82242" lon="6.43517">
        <ele>1954</ele>
        <time>2020-07-30T18:13:33Z</time>
      </trkpt>
      <trkpt lat="45.82264" lon="6.43529">
        <ele>1954</ele>
        <time>2020-07-30T18:13:21Z</time>
      </trkpt>
      <trkpt lat="45.82293" lon="6.43552">
        <ele>1955</ele>
        <time>2020-07-30T18:13:05Z</time>
      </trkpt>
      <trkpt lat="45.82338" lon="6.43591">
        <ele>1963</ele>
        <time>2020-07-30T18:12:38Z</time>
      </trkpt>
      <trkpt lat="45.82391" lon="6.43651">
        <ele>1966</ele>
        <time>2020-07-30T18:12:04Z</time>
      </trkpt>
      <trkpt lat="45.82403" lon="6.43659">
        <ele>1970</ele>
        <time>2020-07-30T18:11:58Z</time>
      </trkpt>
      <trkpt lat="45.82412" lon="6.4367">
        <ele>1973</ele>
        <time>2020-07-30T18:11:52Z</time>
      </trkpt>
      <trkpt lat="45.82436" lon="6.43686">
        <ele>1975</ele>
        <time>2020-07-30T18:11:39Z</time>
      </trkpt>
      <trkpt lat="45.82463" lon="6.43697">
        <ele>1979</ele>
        <time>2020-07-30T18:11:25Z</time>
      </trkpt>
      <trkpt lat="45.82477" lon="6.43706">
        <ele>1981</ele>
        <time>2020-07-30T18:11:17Z</time>
      </trkpt>
      <trkpt lat="45.82505" lon="6.4371">
        <ele>1988</ele>
        <time>2020-07-30T18:11:03Z</time>
      </trkpt>
      <trkpt lat="45.82518" lon="6.43715">
        <ele>1992</ele>
        <time>2020-07-30T18:10:56Z</time>
      </trkpt>
      <trkpt lat="45.82537" lon="6.43728">
        <ele>1998</ele>
        <time>2020-07-30T18:10:46Z</time>
      </trkpt>
      <trkpt lat="45.82557" lon="6.43748">
        <ele>2007</ele>
        <time>2020-07-30T18:10:33Z</time>
      </trkpt>
      <trkpt lat="45.82598" lon="6.43775">
        <ele>2016</ele>
        <time>2020-07-30T18:10:11Z</time>
      </trkpt>
      <trkpt lat="45.82613" lon="6.43791">
        <ele>2017</ele>
        <time>2020-07-30T18:10:01Z</time>
      </trkpt>
      <trkpt lat="45.82622" lon="6.43795">
        <ele>2020</ele>
        <time>2020-07-30T18:09:57Z</time>
      </trkpt>
      <trkpt lat="45.82641" lon="6.43813">
        <ele>2025</ele>
        <time>2020-07-30T18:09:45Z</time>
      </trkpt>
      <trkpt lat="45.82663" lon="6.43827">
        <ele>2033</ele>
        <time>2020-07-30T18:09:33Z</time>
      </trkpt>
      <trkpt lat="45.82684" lon="6.43851">
        <ele>2036</ele>
        <time>2020-07-30T18:09:20Z</time>
      </trkpt>
      <trkpt lat="45.82701" lon="6.43863">
        <ele>2041</ele>
        <time>2020-07-30T18:09:10Z</time>
      </trkpt>
      <trkpt lat="45.8272" lon="6.43884">
        <ele>2048</ele>
        <time>2020-07-30T18:08:58Z</time>
      </trkpt>
      <trkpt lat="45.82728" lon="6.43889">
        <ele>2053</ele>
        <time>2020-07-30T18:08:54Z</time>
      </trkpt>
      <trkpt lat="45.82816" lon="6.43993">
        <ele>2097</ele>
        <time>2020-07-30T18:07:57Z</time>
      </trkpt>
      <trkpt lat="45.82828" lon="6.43999">
        <ele>2107</ele>
        <time>2020-07-30T18:07:51Z</time>
      </trkpt>
      <trkpt lat="45.82836" lon="6.44007">
        <ele>2111</ele>
        <time>2020-07-30T18:07:46Z</time>
      </trkpt>
      <trkpt lat="45.8285" lon="6.44012">
        <ele>2116</ele>
        <time>2020-07-30T18:07:38Z</time>
      </trkpt>
      <trkpt lat="45.82862" lon="6.44024">
        <ele>2121</ele>
        <time>2020-07-30T18:07:31Z</time>
      </trkpt>
      <trkpt lat="45.82884" lon="6.44028">
        <ele>2132</ele>
        <time>2020-07-30T18:07:20Z</time>
      </trkpt>
      <trkpt lat="45.82888" lon="6.44041">
        <ele>2134</ele>
        <time>2020-07-30T18:07:15Z</time>
      </trkpt>
      <trkpt lat="45.82903" lon="6.44036">
        <ele>2143</ele>
        <time>2020-07-30T18:07:07Z</time>
      </trkpt>
      <trkpt lat="45.82906" lon="6.44045">
        <ele>2145</ele>
        <time>2020-07-30T18:07:04Z</time>
      </trkpt>
      <trkpt lat="45.82922" lon="6.44052">
        <ele>2154</ele>
        <time>2020-07-30T18:06:56Z</time>
      </trkpt>
      <trkpt lat="45.82948" lon="6.44047">
        <ele>2164</ele>
        <time>2020-07-30T18:06:42Z</time>
      </trkpt>
      <trkpt lat="45.8297" lon="6.4405">
        <ele>2174</ele>
        <time>2020-07-30T18:06:31Z</time>
      </trkpt>
      <trkpt lat="45.83011" lon="6.44074">
        <ele>2194</ele>
        <time>2020-07-30T18:06:09Z</time>
      </trkpt>
      <trkpt lat="45.83028" lon="6.44093">
        <ele>2200</ele>
        <time>2020-07-30T18:05:58Z</time>
      </trkpt>
      <trkpt lat="45.83031" lon="6.44101">
        <ele>2202</ele>
        <time>2020-07-30T18:05:55Z</time>
      </trkpt>
      <trkpt lat="45.83033" lon="6.44126">
        <ele>2205</ele>
        <time>2020-07-30T18:05:47Z</time>
      </trkpt>
      <trkpt lat="45.83037" lon="6.44135">
        <ele>2207</ele>
        <time>2020-07-30T18:05:43Z</time>
      </trkpt>
      <trkpt lat="45.83059" lon="6.44161">
        <ele>2218</ele>
        <time>2020-07-30T18:05:29Z</time>
      </trkpt>
      <trkpt lat="45.83069" lon="6.44181">
        <ele>2224</ele>
        <time>2020-07-30T18:05:20Z</time>
      </trkpt>
      <trkpt lat="45.83081" lon="6.44196">
        <ele>2231</ele>
        <time>2020-07-30T18:05:12Z</time>
      </trkpt>
      <trkpt lat="45.83094" lon="6.44229">
        <ele>2230</ele>
        <time>2020-07-30T18:04:59Z</time>
      </trkpt>
      <trkpt lat="45.83097" lon="6.44256">
        <ele>2231</ele>
        <time>2020-07-30T18:04:49Z</time>
      </trkpt>
      <trkpt lat="45.83107" lon="6.44282">
        <ele>2227</ele>
        <time>2020-07-30T18:04:39Z</time>
      </trkpt>
      <trkpt lat="45.83113" lon="6.44307">
        <ele>2225</ele>
        <time>2020-07-30T18:04:30Z</time>
      </trkpt>
      <trkpt lat="45.83111" lon="6.44333">
        <ele>2225</ele>
        <time>2020-07-30T18:04:21Z</time>
      </trkpt>
      <trkpt lat="45.83124" lon="6.44351">
        <ele>2222</ele>
        <time>2020-07-30T18:04:11Z</time>
      </trkpt>
      <trkpt lat="45.83132" lon="6.44368">
        <ele>2221</ele>
        <time>2020-07-30T18:04:04Z</time>
      </trkpt>
      <trkpt lat="45.83143" lon="6.44379">
        <ele>2222</ele>
        <time>2020-07-30T18:03:58Z</time>
      </trkpt>
      <trkpt lat="45.83147" lon="6.4439">
        <ele>2223</ele>
        <time>2020-07-30T18:03:53Z</time>
      </trkpt>
      <trkpt lat="45.83145" lon="6.4442">
        <ele>2223</ele>
        <time>2020-07-30T18:03:43Z</time>
      </trkpt>
      <trkpt lat="45.8315" lon="6.44425">
        <ele>2224</ele>
        <time>2020-07-30T18:03:40Z</time>
      </trkpt>
      <trkpt lat="45.83155" lon="6.44423">
        <ele>2226</ele>
        <time>2020-07-30T18:03:37Z</time>
      </trkpt>
      <trkpt lat="45.83161" lon="6.44426">
        <ele>2228</ele>
        <time>2020-07-30T18:03:34Z</time>
      </trkpt>
      <trkpt lat="45.83174" lon="6.44441">
        <ele>2227</ele>
        <time>2020-07-30T18:03:26Z</time>
      </trkpt>
      <trkpt lat="45.83177" lon="6.44446">
        <ele>2227</ele>
        <time>2020-07-30T18:03:23Z</time>
      </trkpt>
      <trkpt lat="45.83177" lon="6.44459">
        <ele>2226</ele>
        <time>2020-07-30T18:03:19Z</time>
      </trkpt>
      <trkpt lat="45.83191" lon="6.44493">
        <ele>2225</ele>
        <time>2020-07-30T18:03:05Z</time>
      </trkpt>
      <trkpt lat="45.83195" lon="6.44493">
        <ele>2225</ele>
        <time>2020-07-30T18:03:03Z</time>
      </trkpt>
      <trkpt lat="45.83214" lon="6.44509">
        <ele>2222</ele>
        <time>2020-07-30T18:02:52Z</time>
      </trkpt>
      <trkpt lat="45.83228" lon="6.4451">
        <ele>2222</ele>
        <time>2020-07-30T18:02:45Z</time>
      </trkpt>
      <trkpt lat="45.83238" lon="6.44506">
        <ele>2224</ele>
        <time>2020-07-30T18:02:40Z</time>
      </trkpt>
      <trkpt lat="45.83252" lon="6.44527">
        <ele>2219</ele>
        <time>2020-07-30T18:02:30Z</time>
      </trkpt>
      <trkpt lat="45.83276" lon="6.44527">
        <ele>2209</ele>
        <time>2020-07-30T18:02:18Z</time>
      </trkpt>
      <trkpt lat="45.83282" lon="6.44534">
        <ele>2205</ele>
        <time>2020-07-30T18:02:14Z</time>
      </trkpt>
      <trkpt lat="45.83286" lon="6.44535">
        <ele>2204</ele>
        <time>2020-07-30T18:02:12Z</time>
      </trkpt>
      <trkpt lat="45.83302" lon="6.44523">
        <ele>2198</ele>
        <time>2020-07-30T18:02:03Z</time>
      </trkpt>
      <trkpt lat="45.83314" lon="6.44529">
        <ele>2192</ele>
        <time>2020-07-30T18:01:56Z</time>
      </trkpt>
      <trkpt lat="45.8332" lon="6.44548">
        <ele>2189</ele>
        <time>2020-07-30T18:01:49Z</time>
      </trkpt>
      <trkpt lat="45.83327" lon="6.44541">
        <ele>2187</ele>
        <time>2020-07-30T18:01:45Z</time>
      </trkpt>
      <trkpt lat="45.83329" lon="6.44543">
        <ele>2186</ele>
        <time>2020-07-30T18:01:44Z</time>
      </trkpt>
      <trkpt lat="45.8333" lon="6.4454">
        <ele>2185</ele>
        <time>2020-07-30T18:01:42Z</time>
      </trkpt>
      <trkpt lat="45.8334" lon="6.4454">
        <ele>2182</ele>
        <time>2020-07-30T18:01:37Z</time>
      </trkpt>
      <trkpt lat="45.83371" lon="6.4457">
        <ele>2179</ele>
        <time>2020-07-30T18:01:19Z</time>
      </trkpt>
      <trkpt lat="45.83381" lon="6.44588">
        <ele>2178</ele>
        <time>2020-07-30T18:01:11Z</time>
      </trkpt>
      <trkpt lat="45.83399" lon="6.44608">
        <ele>2170</ele>
        <time>2020-07-30T18:00:59Z</time>
      </trkpt>
      <trkpt lat="45.83408" lon="6.44608">
        <ele>2171</ele>
        <time>2020-07-30T18:00:55Z</time>
      </trkpt>
      <trkpt lat="45.83436" lon="6.4463">
        <ele>2159</ele>
        <time>2020-07-30T18:00:39Z</time>
      </trkpt>
      <trkpt lat="45.83446" lon="6.44636">
        <ele>2155</ele>
        <time>2020-07-30T18:00:33Z</time>
      </trkpt>
      <trkpt lat="45.8345" lon="6.44636">
        <ele>2154</ele>
        <time>2020-07-30T18:00:31Z</time>
      </trkpt>
      <trkpt lat="45.83472" lon="6.44678">
        <ele>2145</ele>
        <time>2020-07-30T18:00:13Z</time>
      </trkpt>
      <trkpt lat="45.83474" lon="6.44698">
        <ele>2140</ele>
        <time>2020-07-30T18:00:06Z</time>
      </trkpt>
      <trkpt lat="45.8348" lon="6.44698">
        <ele>2140</ele>
        <time>2020-07-30T18:00:03Z</time>
      </trkpt>
      <trkpt lat="45.83483" lon="6.44694">
        <ele>2141</ele>
        <time>2020-07-30T18:00:01Z</time>
      </trkpt>
      <trkpt lat="45.83484" lon="6.44696">
        <ele>2141</ele>
        <time>2020-07-30T18:00:00Z</time>
      </trkpt>
      <trkpt lat="45.83488" lon="6.44706">
        <ele>2139</ele>
        <time>2020-07-30T17:59:56Z</time>
      </trkpt>
      <trkpt lat="45.83486" lon="6.44711">
        <ele>2138</ele>
        <time>2020-07-30T17:59:54Z</time>
      </trkpt>
      <trkpt lat="45.83491" lon="6.44715">
        <ele>2138</ele>
        <time>2020-07-30T17:59:51Z</time>
      </trkpt>
      <trkpt lat="45.83497" lon="6.44746">
        <ele>2135</ele>
        <time>2020-07-30T17:59:40Z</time>
      </trkpt>
      <trkpt lat="45.83509" lon="6.44772">
        <ele>2126</ele>
        <time>2020-07-30T17:59:29Z</time>
      </trkpt>
      <trkpt lat="45.83515" lon="6.44777">
        <ele>2123</ele>
        <time>2020-07-30T17:59:26Z</time>
      </trkpt>
      <trkpt lat="45.83541" lon="6.44822">
        <ele>2114</ele>
        <time>2020-07-30T17:59:05Z</time>
      </trkpt>
      <trkpt lat="45.83545" lon="6.44831">
        <ele>2114</ele>
        <time>2020-07-30T17:59:02Z</time>
      </trkpt>
      <trkpt lat="45.83543" lon="6.44844">
        <ele>2110</ele>
        <time>2020-07-30T17:58:57Z</time>
      </trkpt>
      <trkpt lat="45.83552" lon="6.44852">
        <ele>2110</ele>
        <time>2020-07-30T17:58:52Z</time>
      </trkpt>
      <trkpt lat="45.83555" lon="6.44867">
        <ele>2107</ele>
        <time>2020-07-30T17:58:46Z</time>
      </trkpt>
      <trkpt lat="45.83573" lon="6.44884">
        <ele>2113</ele>
        <time>2020-07-30T17:58:35Z</time>
      </trkpt>
      <trkpt lat="45.83583" lon="6.44897">
        <ele>2118</ele>
        <time>2020-07-30T17:58:29Z</time>
      </trkpt>
      <trkpt lat="45.83589" lon="6.449">
        <ele>2118</ele>
        <time>2020-07-30T17:58:25Z</time>
      </trkpt>
      <trkpt lat="45.83595" lon="6.44897">
        <ele>2118</ele>
        <time>2020-07-30T17:58:22Z</time>
      </trkpt>
      <trkpt lat="45.83624" lon="6.4494">
        <ele>2111</ele>
        <time>2020-07-30T17:58:01Z</time>
      </trkpt>
      <trkpt lat="45.83637" lon="6.44953">
        <ele>2111</ele>
        <time>2020-07-30T17:57:53Z</time>
      </trkpt>
      <trkpt lat="45.83652" lon="6.44961">
        <ele>2114</ele>
        <time>2020-07-30T17:57:45Z</time>
      </trkpt>
      <trkpt lat="45.8368" lon="6.44992">
        <ele>2122</ele>
        <time>2020-07-30T17:57:28Z</time>
      </trkpt>
      <trkpt lat="45.83709" lon="6.45001">
        <ele>2128</ele>
        <time>2020-07-30T17:57:13Z</time>
      </trkpt>
      <trkpt lat="45.83719" lon="6.45007">
        <ele>2125</ele>
        <time>2020-07-30T17:57:07Z</time>
      </trkpt>
      <trkpt lat="45.83748" lon="6.45018">
        <ele>2121</ele>
        <time>2020-07-30T17:56:52Z</time>
      </trkpt>
      <trkpt lat="45.8376" lon="6.45016">
        <ele>2124</ele>
        <time>2020-07-30T17:56:46Z</time>
      </trkpt>
      <trkpt lat="45.83776" lon="6.45017">
        <ele>2125</ele>
        <time>2020-07-30T17:56:38Z</time>
      </trkpt>
      <trkpt lat="45.83792" lon="6.45021">
        <ele>2123</ele>
        <time>2020-07-30T17:56:30Z</time>
      </trkpt>
      <trkpt lat="45.838" lon="6.45017">
        <ele>2127</ele>
        <time>2020-07-30T17:56:26Z</time>
      </trkpt>
      <trkpt lat="45.83818" lon="6.45018">
        <ele>2128</ele>
        <time>2020-07-30T17:56:17Z</time>
      </trkpt>
      <trkpt lat="45.83837" lon="6.45007">
        <ele>2140</ele>
        <time>2020-07-30T17:56:07Z</time>
      </trkpt>
      <trkpt lat="45.83849" lon="6.44997">
        <ele>2148</ele>
        <time>2020-07-30T17:56:00Z</time>
      </trkpt>
      <trkpt lat="45.8387" lon="6.4497">
        <ele>2148</ele>
        <time>2020-07-30T17:55:46Z</time>
      </trkpt>
      <trkpt lat="45.8388" lon="6.44966">
        <ele>2149</ele>
        <time>2020-07-30T17:55:41Z</time>
      </trkpt>
      <trkpt lat="45.83906" lon="6.44984">
        <ele>2158</ele>
        <time>2020-07-30T17:55:26Z</time>
      </trkpt>
      <trkpt lat="45.8392" lon="6.44989">
        <ele>2162</ele>
        <time>2020-07-30T17:55:19Z</time>
      </trkpt>
      <trkpt lat="45.83942" lon="6.4499">
        <ele>2167</ele>
        <time>2020-07-30T17:55:08Z</time>
      </trkpt>
      <trkpt lat="45.83972" lon="6.44982">
        <ele>2174</ele>
        <time>2020-07-30T17:54:53Z</time>
      </trkpt>
      <trkpt lat="45.84006" lon="6.44979">
        <ele>2180</ele>
        <time>2020-07-30T17:54:36Z</time>
      </trkpt>
      <trkpt lat="45.84021" lon="6.44971">
        <ele>2179</ele>
        <time>2020-07-30T17:54:28Z</time>
      </trkpt>
      <trkpt lat="45.84034" lon="6.4496">
        <ele>2182</ele>
        <time>2020-07-30T17:54:20Z</time>
      </trkpt>
      <trkpt lat="45.84067" lon="6.44927">
        <ele>2204</ele>
        <time>2020-07-30T17:54:00Z</time>
      </trkpt>
      <trkpt lat="45.84071" lon="6.44916">
        <ele>2213</ele>
        <time>2020-07-30T17:53:56Z</time>
      </trkpt>
      <trkpt lat="45.84085" lon="6.4492">
        <ele>2217</ele>
        <time>2020-07-30T17:53:48Z</time>
      </trkpt>
      <trkpt lat="45.84099" lon="6.44919">
        <ele>2223</ele>
        <time>2020-07-30T17:53:41Z</time>
      </trkpt>
      <trkpt lat="45.84106" lon="6.44914">
        <ele>2228</ele>
        <time>2020-07-30T17:53:37Z</time>
      </trkpt>
      <trkpt lat="45.84121" lon="6.44887">
        <ele>2238</ele>
        <time>2020-07-30T17:53:25Z</time>
      </trkpt>
      <trkpt lat="45.84124" lon="6.4489">
        <ele>2239</ele>
        <time>2020-07-30T17:53:24Z</time>
      </trkpt>
      <trkpt lat="45.84129" lon="6.44881">
        <ele>2243</ele>
        <time>2020-07-30T17:53:20Z</time>
      </trkpt>
      <trkpt lat="45.84134" lon="6.44882">
        <ele>2246</ele>
        <time>2020-07-30T17:53:17Z</time>
      </trkpt>
      <trkpt lat="45.84138" lon="6.44878">
        <ele>2249</ele>
        <time>2020-07-30T17:53:15Z</time>
      </trkpt>
      <trkpt lat="45.8414" lon="6.44881">
        <ele>2249</ele>
        <time>2020-07-30T17:53:13Z</time>
      </trkpt>
      <trkpt lat="45.84143" lon="6.44881">
        <ele>2251</ele>
        <time>2020-07-30T17:53:12Z</time>
      </trkpt>
      <trkpt lat="45.84153" lon="6.44867">
        <ele>2261</ele>
        <time>2020-07-30T17:53:05Z</time>
      </trkpt>
      <trkpt lat="45.84158" lon="6.44878">
        <ele>2260</ele>
        <time>2020-07-30T17:53:00Z</time>
      </trkpt>
      <trkpt lat="45.84161" lon="6.4488">
        <ele>2261</ele>
        <time>2020-07-30T17:52:58Z</time>
      </trkpt>
      <trkpt lat="45.84175" lon="6.44863">
        <ele>2273</ele>
        <time>2020-07-30T17:52:49Z</time>
      </trkpt>
      <trkpt lat="45.84178" lon="6.44869">
        <ele>2272</ele>
        <time>2020-07-30T17:52:47Z</time>
      </trkpt>
      <trkpt lat="45.84181" lon="6.44865">
        <ele>2274</ele>
        <time>2020-07-30T17:52:45Z</time>
      </trkpt>
      <trkpt lat="45.84186" lon="6.4487">
        <ele>2274</ele>
        <time>2020-07-30T17:52:42Z</time>
      </trkpt>
      <trkpt lat="45.84192" lon="6.44857">
        <ele>2281</ele>
        <time>2020-07-30T17:52:36Z</time>
      </trkpt>
      <trkpt lat="45.84224" lon="6.44808">
        <ele>2304</ele>
        <time>2020-07-30T17:52:13Z</time>
      </trkpt>
      <trkpt lat="45.84239" lon="6.4477">
        <ele>2314</ele>
        <time>2020-07-30T17:51:58Z</time>
      </trkpt>
      <trkpt lat="45.84244" lon="6.44763">
        <ele>2318</ele>
        <time>2020-07-30T17:51:54Z</time>
      </trkpt>
      <trkpt lat="45.84255" lon="6.44764">
        <ele>2322</ele>
        <time>2020-07-30T17:51:49Z</time>
      </trkpt>
      <trkpt lat="45.84275" lon="6.44776">
        <ele>2324</ele>
        <time>2020-07-30T17:51:38Z</time>
      </trkpt>
      <trkpt lat="45.84287" lon="6.44775">
        <ele>2327</ele>
        <time>2020-07-30T17:51:32Z</time>
      </trkpt>
      <trkpt lat="45.84334" lon="6.44754">
        <ele>2341</ele>
        <time>2020-07-30T17:51:07Z</time>
      </trkpt>
      <trkpt lat="45.84344" lon="6.44743">
        <ele>2342</ele>
        <time>2020-07-30T17:51:01Z</time>
      </trkpt>
      <trkpt lat="45.8437" lon="6.44729">
        <ele>2345</ele>
        <time>2020-07-30T17:50:47Z</time>
      </trkpt>
      <trkpt lat="45.84386" lon="6.44712">
        <ele>2349</ele>
        <time>2020-07-30T17:50:37Z</time>
      </trkpt>
      <trkpt lat="45.84407" lon="6.44683">
        <ele>2357</ele>
        <time>2020-07-30T17:50:22Z</time>
      </trkpt>
      <trkpt lat="45.84418" lon="6.4466">
        <ele>2362</ele>
        <time>2020-07-30T17:50:13Z</time>
      </trkpt>
      <trkpt lat="45.84435" lon="6.44642">
        <ele>2359</ele>
        <time>2020-07-30T17:50:02Z</time>
      </trkpt>
      <trkpt lat="45.84449" lon="6.44615">
        <ele>2362</ele>
        <time>2020-07-30T17:49:50Z</time>
      </trkpt>
      <trkpt lat="45.84463" lon="6.44554">
        <ele>2376</ele>
        <time>2020-07-30T17:49:28Z</time>
      </trkpt>
      <trkpt lat="45.84473" lon="6.44536">
        <ele>2382</ele>
        <time>2020-07-30T17:49:20Z</time>
      </trkpt>
      <trkpt lat="45.84473" lon="6.44525">
        <ele>2383</ele>
        <time>2020-07-30T17:49:16Z</time>
      </trkpt>
      <trkpt lat="45.84476" lon="6.44519">
        <ele>2385</ele>
        <time>2020-07-30T17:49:13Z</time>
      </trkpt>
      <trkpt lat="45.84481" lon="6.4453">
        <ele>2386</ele>
        <time>2020-07-30T17:49:09Z</time>
      </trkpt>
      <trkpt lat="45.84484" lon="6.44528">
        <ele>2388</ele>
        <time>2020-07-30T17:49:07Z</time>
      </trkpt>
      <trkpt lat="45.84488" lon="6.44529">
        <ele>2390</ele>
        <time>2020-07-30T17:49:05Z</time>
      </trkpt>
      <trkpt lat="45.8449" lon="6.44522">
        <ele>2392</ele>
        <time>2020-07-30T17:49:03Z</time>
      </trkpt>
      <trkpt lat="45.84493" lon="6.44521">
        <ele>2394</ele>
        <time>2020-07-30T17:49:01Z</time>
      </trkpt>
      <trkpt lat="45.845" lon="6.44526">
        <ele>2397</ele>
        <time>2020-07-30T17:48:57Z</time>
      </trkpt>
      <trkpt lat="45.84504" lon="6.44515">
        <ele>2400</ele>
        <time>2020-07-30T17:48:53Z</time>
      </trkpt>
      <trkpt lat="45.84504" lon="6.44503">
        <ele>2402</ele>
        <time>2020-07-30T17:48:49Z</time>
      </trkpt>
      <trkpt lat="45.84508" lon="6.44496">
        <ele>2402</ele>
        <time>2020-07-30T17:48:45Z</time>
      </trkpt>
      <trkpt lat="45.84505" lon="6.44493">
        <ele>2401</ele>
        <time>2020-07-30T17:48:44Z</time>
      </trkpt>
      <trkpt lat="45.84518" lon="6.44485">
        <ele>2401</ele>
        <time>2020-07-30T17:48:36Z</time>
      </trkpt>
      <trkpt lat="45.84531" lon="6.44486">
        <ele>2403</ele>
        <time>2020-07-30T17:48:30Z</time>
      </trkpt>
      <trkpt lat="45.84543" lon="6.44497">
        <ele>2408</ele>
        <time>2020-07-30T17:48:23Z</time>
      </trkpt>
      <trkpt lat="45.84548" lon="6.44495">
        <ele>2408</ele>
        <time>2020-07-30T17:48:20Z</time>
      </trkpt>
      <trkpt lat="45.84549" lon="6.44501">
        <ele>2410</ele>
        <time>2020-07-30T17:48:18Z</time>
      </trkpt>
      <trkpt lat="45.8456" lon="6.44511">
        <ele>2411</ele>
        <time>2020-07-30T17:48:12Z</time>
      </trkpt>
      <trkpt lat="45.84571" lon="6.44526">
        <ele>2413</ele>
        <time>2020-07-30T17:48:04Z</time>
      </trkpt>
      <trkpt lat="45.84579" lon="6.4453">
        <ele>2414</ele>
        <time>2020-07-30T17:48:00Z</time>
      </trkpt>
      <trkpt lat="45.84601" lon="6.44562">
        <ele>2417</ele>
        <time>2020-07-30T17:47:44Z</time>
      </trkpt>
      <trkpt lat="45.84619" lon="6.44575">
        <ele>2422</ele>
        <time>2020-07-30T17:47:34Z</time>
      </trkpt>
      <trkpt lat="45.84636" lon="6.44584">
        <ele>2427</ele>
        <time>2020-07-30T17:47:25Z</time>
      </trkpt>
      <trkpt lat="45.8464" lon="6.44583">
        <ele>2428</ele>
        <time>2020-07-30T17:47:23Z</time>
      </trkpt>
      <trkpt lat="45.84672" lon="6.44591">
        <ele>2429</ele>
        <time>2020-07-30T17:47:07Z</time>
      </trkpt>
      <trkpt lat="45.84671" lon="6.44597">
        <ele>2426</ele>
        <time>2020-07-30T17:47:04Z</time>
      </trkpt>
      <trkpt lat="45.84678" lon="6.44601">
        <ele>2423</ele>
        <time>2020-07-30T17:47:01Z</time>
      </trkpt>
      <trkpt lat="45.84687" lon="6.44601">
        <ele>2422</ele>
        <time>2020-07-30T17:46:56Z</time>
      </trkpt>
      <trkpt lat="45.84695" lon="6.44595">
        <ele>2423</ele>
        <time>2020-07-30T17:46:52Z</time>
      </trkpt>
      <trkpt lat="45.84707" lon="6.44601">
        <ele>2420</ele>
        <time>2020-07-30T17:46:45Z</time>
      </trkpt>
      <trkpt lat="45.84714" lon="6.44615">
        <ele>2417</ele>
        <time>2020-07-30T17:46:39Z</time>
      </trkpt>
      <trkpt lat="45.84725" lon="6.44617">
        <ele>2417</ele>
        <time>2020-07-30T17:46:34Z</time>
      </trkpt>
      <trkpt lat="45.84731" lon="6.44629">
        <ele>2417</ele>
        <time>2020-07-30T17:46:29Z</time>
      </trkpt>
      <trkpt lat="45.84743" lon="6.4464">
        <ele>2420</ele>
        <time>2020-07-30T17:46:22Z</time>
      </trkpt>
      <trkpt lat="45.84749" lon="6.44642">
        <ele>2422</ele>
        <time>2020-07-30T17:46:18Z</time>
      </trkpt>
      <trkpt lat="45.84758" lon="6.44639">
        <ele>2421</ele>
        <time>2020-07-30T17:46:14Z</time>
      </trkpt>
      <trkpt lat="45.84783" lon="6.44651">
        <ele>2424</ele>
        <time>2020-07-30T17:46:01Z</time>
      </trkpt>
      <trkpt lat="45.84808" lon="6.44652">
        <ele>2424</ele>
        <time>2020-07-30T17:45:48Z</time>
      </trkpt>
      <trkpt lat="45.84819" lon="6.44668">
        <ele>2429</ele>
        <time>2020-07-30T17:45:40Z</time>
      </trkpt>
      <trkpt lat="45.84833" lon="6.44671">
        <ele>2428</ele>
        <time>2020-07-30T17:45:33Z</time>
      </trkpt>
      <trkpt lat="45.84843" lon="6.44678">
        <ele>2424</ele>
        <time>2020-07-30T17:45:28Z</time>
      </trkpt>
      <trkpt lat="45.84848" lon="6.44674">
        <ele>2427</ele>
        <time>2020-07-30T17:45:25Z</time>
      </trkpt>
      <trkpt lat="45.84851" lon="6.44675">
        <ele>2427</ele>
        <time>2020-07-30T17:45:23Z</time>
      </trkpt>
      <trkpt lat="45.8486" lon="6.44689">
        <ele>2420</ele>
        <time>2020-07-30T17:45:17Z</time>
      </trkpt>
      <trkpt lat="45.84891" lon="6.4469">
        <ele>2427</ele>
        <time>2020-07-30T17:45:01Z</time>
      </trkpt>
      <trkpt lat="45.84898" lon="6.44687">
        <ele>2430</ele>
        <time>2020-07-30T17:44:57Z</time>
      </trkpt>
      <trkpt lat="45.84921" lon="6.4469">
        <ele>2434</ele>
        <time>2020-07-30T17:44:46Z</time>
      </trkpt>
      <trkpt lat="45.84932" lon="6.44702">
        <ele>2433</ele>
        <time>2020-07-30T17:44:39Z</time>
      </trkpt>
      <trkpt lat="45.84936" lon="6.4471">
        <ele>2434</ele>
        <time>2020-07-30T17:44:35Z</time>
      </trkpt>
      <trkpt lat="45.84942" lon="6.44711">
        <ele>2434</ele>
        <time>2020-07-30T17:44:32Z</time>
      </trkpt>
      <trkpt lat="45.84944" lon="6.44715">
        <ele>2435</ele>
        <time>2020-07-30T17:44:31Z</time>
      </trkpt>
      <trkpt lat="45.84949" lon="6.44716">
        <ele>2435</ele>
        <time>2020-07-30T17:44:28Z</time>
      </trkpt>
      <trkpt lat="45.84955" lon="6.44723">
        <ele>2437</ele>
        <time>2020-07-30T17:44:24Z</time>
      </trkpt>
      <trkpt lat="45.84957" lon="6.4473">
        <ele>2438</ele>
        <time>2020-07-30T17:44:22Z</time>
      </trkpt>
      <trkpt lat="45.84964" lon="6.44731">
        <ele>2439</ele>
        <time>2020-07-30T17:44:18Z</time>
      </trkpt>
      <trkpt lat="45.84966" lon="6.44734">
        <ele>2440</ele>
        <time>2020-07-30T17:44:17Z</time>
      </trkpt>
      <trkpt lat="45.84987" lon="6.44729">
        <ele>2444</ele>
        <time>2020-07-30T17:44:06Z</time>
      </trkpt>
      <trkpt lat="45.84992" lon="6.44724">
        <ele>2444</ele>
        <time>2020-07-30T17:44:03Z</time>
      </trkpt>
      <trkpt lat="45.84999" lon="6.44726">
        <ele>2446</ele>
        <time>2020-07-30T17:43:59Z</time>
      </trkpt>
      <trkpt lat="45.85005" lon="6.44721">
        <ele>2441</ele>
        <time>2020-07-30T17:43:56Z</time>
      </trkpt>
      <trkpt lat="45.85027" lon="6.44699">
        <ele>2422</ele>
        <time>2020-07-30T17:43:43Z</time>
      </trkpt>
      <trkpt lat="45.8503" lon="6.44684">
        <ele>2419</ele>
        <time>2020-07-30T17:43:37Z</time>
      </trkpt>
      <trkpt lat="45.85038" lon="6.44678">
        <ele>2414</ele>
        <time>2020-07-30T17:43:33Z</time>
      </trkpt>
      <trkpt lat="45.85038" lon="6.44642">
        <ele>2408</ele>
        <time>2020-07-30T17:43:20Z</time>
      </trkpt>
      <trkpt lat="45.8504" lon="6.44634">
        <ele>2405</ele>
        <time>2020-07-30T17:43:17Z</time>
      </trkpt>
      <trkpt lat="45.85038" lon="6.4462">
        <ele>2402</ele>
        <time>2020-07-30T17:43:12Z</time>
      </trkpt>
      <trkpt lat="45.85035" lon="6.4462">
        <ele>2402</ele>
        <time>2020-07-30T17:43:11Z</time>
      </trkpt>
      <trkpt lat="45.85031" lon="6.44613">
        <ele>2400</ele>
        <time>2020-07-30T17:43:07Z</time>
      </trkpt>
      <trkpt lat="45.85033" lon="6.44585">
        <ele>2392</ele>
        <time>2020-07-30T17:42:58Z</time>
      </trkpt>
      <trkpt lat="45.85029" lon="6.44546">
        <ele>2378</ele>
        <time>2020-07-30T17:42:44Z</time>
      </trkpt>
      <trkpt lat="45.85023" lon="6.44546">
        <ele>2376</ele>
        <time>2020-07-30T17:42:41Z</time>
      </trkpt>
      <trkpt lat="45.85021" lon="6.44537">
        <ele>2373</ele>
        <time>2020-07-30T17:42:38Z</time>
      </trkpt>
      <trkpt lat="45.85018" lon="6.44537">
        <ele>2371</ele>
        <time>2020-07-30T17:42:36Z</time>
      </trkpt>
      <trkpt lat="45.85012" lon="6.44522">
        <ele>2364</ele>
        <time>2020-07-30T17:42:30Z</time>
      </trkpt>
      <trkpt lat="45.85011" lon="6.44509">
        <ele>2359</ele>
        <time>2020-07-30T17:42:26Z</time>
      </trkpt>
      <trkpt lat="45.85015" lon="6.44481">
        <ele>2351</ele>
        <time>2020-07-30T17:42:16Z</time>
      </trkpt>
      <trkpt lat="45.85012" lon="6.44476">
        <ele>2347</ele>
        <time>2020-07-30T17:42:13Z</time>
      </trkpt>
      <trkpt lat="45.85009" lon="6.44476">
        <ele>2345</ele>
        <time>2020-07-30T17:42:12Z</time>
      </trkpt>
      <trkpt lat="45.85008" lon="6.44467">
        <ele>2341</ele>
        <time>2020-07-30T17:42:09Z</time>
      </trkpt>
      <trkpt lat="45.85005" lon="6.44469">
        <ele>2340</ele>
        <time>2020-07-30T17:42:07Z</time>
      </trkpt>
      <trkpt lat="45.85004" lon="6.44454">
        <ele>2333</ele>
        <time>2020-07-30T17:42:02Z</time>
      </trkpt>
      <trkpt lat="45.84993" lon="6.44444">
        <ele>2323</ele>
        <time>2020-07-30T17:41:55Z</time>
      </trkpt>
      <trkpt lat="45.84996" lon="6.44431">
        <ele>2318</ele>
        <time>2020-07-30T17:41:50Z</time>
      </trkpt>
      <trkpt lat="45.84992" lon="6.44432">
        <ele>2317</ele>
        <time>2020-07-30T17:41:48Z</time>
      </trkpt>
      <trkpt lat="45.84991" lon="6.44426">
        <ele>2313</ele>
        <time>2020-07-30T17:41:46Z</time>
      </trkpt>
      <trkpt lat="45.84985" lon="6.44425">
        <ele>2309</ele>
        <time>2020-07-30T17:41:43Z</time>
      </trkpt>
      <trkpt lat="45.84985" lon="6.4442">
        <ele>2307</ele>
        <time>2020-07-30T17:41:41Z</time>
      </trkpt>
      <trkpt lat="45.84981" lon="6.44415">
        <ele>2303</ele>
        <time>2020-07-30T17:41:39Z</time>
      </trkpt>
      <trkpt lat="45.84981" lon="6.44402">
        <ele>2300</ele>
        <time>2020-07-30T17:41:34Z</time>
      </trkpt>
      <trkpt lat="45.84978" lon="6.44399">
        <ele>2298</ele>
        <time>2020-07-30T17:41:32Z</time>
      </trkpt>
      <trkpt lat="45.84981" lon="6.44382">
        <ele>2297</ele>
        <time>2020-07-30T17:41:26Z</time>
      </trkpt>
      <trkpt lat="45.84978" lon="6.44379">
        <ele>2294</ele>
        <time>2020-07-30T17:41:24Z</time>
      </trkpt>
      <trkpt lat="45.84975" lon="6.44368">
        <ele>2290</ele>
        <time>2020-07-30T17:41:20Z</time>
      </trkpt>
      <trkpt lat="45.84976" lon="6.44344">
        <ele>2286</ele>
        <time>2020-07-30T17:41:12Z</time>
      </trkpt>
      <trkpt lat="45.84973" lon="6.44337">
        <ele>2282</ele>
        <time>2020-07-30T17:41:09Z</time>
      </trkpt>
      <trkpt lat="45.84973" lon="6.44323">
        <ele>2280</ele>
        <time>2020-07-30T17:41:04Z</time>
      </trkpt>
      <trkpt lat="45.8497" lon="6.44312">
        <ele>2276</ele>
        <time>2020-07-30T17:41:00Z</time>
      </trkpt>
      <trkpt lat="45.84974" lon="6.44295">
        <ele>2276</ele>
        <time>2020-07-30T17:40:54Z</time>
      </trkpt>
      <trkpt lat="45.84972" lon="6.44294">
        <ele>2275</ele>
        <time>2020-07-30T17:40:53Z</time>
      </trkpt>
      <trkpt lat="45.84973" lon="6.44283">
        <ele>2274</ele>
        <time>2020-07-30T17:40:49Z</time>
      </trkpt>
      <trkpt lat="45.8497" lon="6.44282">
        <ele>2271</ele>
        <time>2020-07-30T17:40:47Z</time>
      </trkpt>
      <trkpt lat="45.84972" lon="6.44271">
        <ele>2271</ele>
        <time>2020-07-30T17:40:43Z</time>
      </trkpt>
      <trkpt lat="45.84969" lon="6.44266">
        <ele>2267</ele>
        <time>2020-07-30T17:40:41Z</time>
      </trkpt>
      <trkpt lat="45.84966" lon="6.44246">
        <ele>2260</ele>
        <time>2020-07-30T17:40:34Z</time>
      </trkpt>
      <trkpt lat="45.84968" lon="6.44222">
        <ele>2253</ele>
        <time>2020-07-30T17:40:26Z</time>
      </trkpt>
      <trkpt lat="45.84965" lon="6.44203">
        <ele>2244</ele>
        <time>2020-07-30T17:40:19Z</time>
      </trkpt>
      <trkpt lat="45.84968" lon="6.44187">
        <ele>2240</ele>
        <time>2020-07-30T17:40:13Z</time>
      </trkpt>
      <trkpt lat="45.84966" lon="6.44178">
        <ele>2236</ele>
        <time>2020-07-30T17:40:10Z</time>
      </trkpt>
      <trkpt lat="45.84968" lon="6.44177">
        <ele>2237</ele>
        <time>2020-07-30T17:40:09Z</time>
      </trkpt>
      <trkpt lat="45.84963" lon="6.4417">
        <ele>2231</ele>
        <time>2020-07-30T17:40:05Z</time>
      </trkpt>
      <trkpt lat="45.84963" lon="6.44165">
        <ele>2229</ele>
        <time>2020-07-30T17:40:03Z</time>
      </trkpt>
      <trkpt lat="45.84954" lon="6.44171">
        <ele>2225</ele>
        <time>2020-07-30T17:39:58Z</time>
      </trkpt>
      <trkpt lat="45.8495" lon="6.44164">
        <ele>2220</ele>
        <time>2020-07-30T17:39:55Z</time>
      </trkpt>
      <trkpt lat="45.84945" lon="6.44163">
        <ele>2216</ele>
        <time>2020-07-30T17:39:53Z</time>
      </trkpt>
      <trkpt lat="45.84947" lon="6.4414">
        <ele>2210</ele>
        <time>2020-07-30T17:39:45Z</time>
      </trkpt>
      <trkpt lat="45.84943" lon="6.4413">
        <ele>2204</ele>
        <time>2020-07-30T17:39:41Z</time>
      </trkpt>
      <trkpt lat="45.84941" lon="6.44089">
        <ele>2188</ele>
        <time>2020-07-30T17:39:26Z</time>
      </trkpt>
      <trkpt lat="45.84939" lon="6.44088">
        <ele>2187</ele>
        <time>2020-07-30T17:39:25Z</time>
      </trkpt>
      <trkpt lat="45.84941" lon="6.44075">
        <ele>2184</ele>
        <time>2020-07-30T17:39:21Z</time>
      </trkpt>
      <trkpt lat="45.84939" lon="6.4407">
        <ele>2182</ele>
        <time>2020-07-30T17:39:19Z</time>
      </trkpt>
      <trkpt lat="45.84941" lon="6.44065">
        <ele>2181</ele>
        <time>2020-07-30T17:39:17Z</time>
      </trkpt>
      <trkpt lat="45.84941" lon="6.44045">
        <ele>2176</ele>
        <time>2020-07-30T17:39:10Z</time>
      </trkpt>
      <trkpt lat="45.84956" lon="6.44009">
        <ele>2175</ele>
        <time>2020-07-30T17:38:55Z</time>
      </trkpt>
      <trkpt lat="45.84956" lon="6.43996">
        <ele>2170</ele>
        <time>2020-07-30T17:38:51Z</time>
      </trkpt>
      <trkpt lat="45.84958" lon="6.43999">
        <ele>2173</ele>
        <time>2020-07-30T17:38:49Z</time>
      </trkpt>
      <trkpt lat="45.84961" lon="6.43996">
        <ele>2174</ele>
        <time>2020-07-30T17:38:47Z</time>
      </trkpt>
      <trkpt lat="45.84961" lon="6.43989">
        <ele>2170</ele>
        <time>2020-07-30T17:38:45Z</time>
      </trkpt>
      <trkpt lat="45.84955" lon="6.43976">
        <ele>2159</ele>
        <time>2020-07-30T17:38:39Z</time>
      </trkpt>
      <trkpt lat="45.8496" lon="6.43967">
        <ele>2158</ele>
        <time>2020-07-30T17:38:35Z</time>
      </trkpt>
      <trkpt lat="45.84958" lon="6.43955">
        <ele>2150</ele>
        <time>2020-07-30T17:38:31Z</time>
      </trkpt>
      <trkpt lat="45.84959" lon="6.4395">
        <ele>2148</ele>
        <time>2020-07-30T17:38:29Z</time>
      </trkpt>
      <trkpt lat="45.84962" lon="6.43948">
        <ele>2149</ele>
        <time>2020-07-30T17:38:28Z</time>
      </trkpt>
      <trkpt lat="45.84961" lon="6.43924">
        <ele>2135</ele>
        <time>2020-07-30T17:38:19Z</time>
      </trkpt>
      <trkpt lat="45.84963" lon="6.4392">
        <ele>2134</ele>
        <time>2020-07-30T17:38:17Z</time>
      </trkpt>
      <trkpt lat="45.84961" lon="6.43911">
        <ele>2128</ele>
        <time>2020-07-30T17:38:14Z</time>
      </trkpt>
      <trkpt lat="45.84965" lon="6.43909">
        <ele>2130</ele>
        <time>2020-07-30T17:38:12Z</time>
      </trkpt>
      <trkpt lat="45.84961" lon="6.43903">
        <ele>2124</ele>
        <time>2020-07-30T17:38:09Z</time>
      </trkpt>
      <trkpt lat="45.84964" lon="6.43901">
        <ele>2125</ele>
        <time>2020-07-30T17:38:08Z</time>
      </trkpt>
      <trkpt lat="45.84963" lon="6.43897">
        <ele>2122</ele>
        <time>2020-07-30T17:38:06Z</time>
      </trkpt>
      <trkpt lat="45.84965" lon="6.43894">
        <ele>2121</ele>
        <time>2020-07-30T17:38:05Z</time>
      </trkpt>
      <trkpt lat="45.84967" lon="6.43894">
        <ele>2122</ele>
        <time>2020-07-30T17:38:04Z</time>
      </trkpt>
      <trkpt lat="45.84964" lon="6.43887">
        <ele>2117</ele>
        <time>2020-07-30T17:38:01Z</time>
      </trkpt>
      <trkpt lat="45.84968" lon="6.43877">
        <ele>2113</ele>
        <time>2020-07-30T17:37:57Z</time>
      </trkpt>
      <trkpt lat="45.84966" lon="6.43864">
        <ele>2105</ele>
        <time>2020-07-30T17:37:52Z</time>
      </trkpt>
      <trkpt lat="45.8497" lon="6.4386">
        <ele>2105</ele>
        <time>2020-07-30T17:37:50Z</time>
      </trkpt>
      <trkpt lat="45.8497" lon="6.43855">
        <ele>2102</ele>
        <time>2020-07-30T17:37:48Z</time>
      </trkpt>
      <trkpt lat="45.84979" lon="6.43845">
        <ele>2100</ele>
        <time>2020-07-30T17:37:42Z</time>
      </trkpt>
      <trkpt lat="45.84978" lon="6.43834">
        <ele>2093</ele>
        <time>2020-07-30T17:37:38Z</time>
      </trkpt>
      <trkpt lat="45.84985" lon="6.43832">
        <ele>2095</ele>
        <time>2020-07-30T17:37:35Z</time>
      </trkpt>
      <trkpt lat="45.8499" lon="6.43834">
        <ele>2098</ele>
        <time>2020-07-30T17:37:32Z</time>
      </trkpt>
      <trkpt lat="45.84996" lon="6.43833">
        <ele>2100</ele>
        <time>2020-07-30T17:37:29Z</time>
      </trkpt>
      <trkpt lat="45.85003" lon="6.43828">
        <ele>2099</ele>
        <time>2020-07-30T17:37:25Z</time>
      </trkpt>
      <trkpt lat="45.85002" lon="6.43825">
        <ele>2099</ele>
        <time>2020-07-30T17:37:24Z</time>
      </trkpt>
      <trkpt lat="45.85005" lon="6.43824">
        <ele>2098</ele>
        <time>2020-07-30T17:37:23Z</time>
      </trkpt>
      <trkpt lat="45.85004" lon="6.43812">
        <ele>2094</ele>
        <time>2020-07-30T17:37:18Z</time>
      </trkpt>
      <trkpt lat="45.85007" lon="6.43812">
        <ele>2093</ele>
        <time>2020-07-30T17:37:17Z</time>
      </trkpt>
      <trkpt lat="45.85013" lon="6.43818">
        <ele>2093</ele>
        <time>2020-07-30T17:37:13Z</time>
      </trkpt>
      <trkpt lat="45.85019" lon="6.43816">
        <ele>2091</ele>
        <time>2020-07-30T17:37:10Z</time>
      </trkpt>
      <trkpt lat="45.8502" lon="6.43818">
        <ele>2092</ele>
        <time>2020-07-30T17:37:09Z</time>
      </trkpt>
      <trkpt lat="45.85033" lon="6.43807">
        <ele>2084</ele>
        <time>2020-07-30T17:37:02Z</time>
      </trkpt>
      <trkpt lat="45.85037" lon="6.4381">
        <ele>2084</ele>
        <time>2020-07-30T17:36:59Z</time>
      </trkpt>
      <trkpt lat="45.8504" lon="6.43807">
        <ele>2082</ele>
        <time>2020-07-30T17:36:58Z</time>
      </trkpt>
      <trkpt lat="45.85045" lon="6.438">
        <ele>2079</ele>
        <time>2020-07-30T17:36:54Z</time>
      </trkpt>
      <trkpt lat="45.85045" lon="6.43788">
        <ele>2074</ele>
        <time>2020-07-30T17:36:50Z</time>
      </trkpt>
      <trkpt lat="45.85048" lon="6.43789">
        <ele>2074</ele>
        <time>2020-07-30T17:36:48Z</time>
      </trkpt>
      <trkpt lat="45.8505" lon="6.43787">
        <ele>2072</ele>
        <time>2020-07-30T17:36:47Z</time>
      </trkpt>
      <trkpt lat="45.8505" lon="6.4379">
        <ele>2074</ele>
        <time>2020-07-30T17:36:46Z</time>
      </trkpt>
      <trkpt lat="45.85048" lon="6.43788">
        <ele>2073</ele>
        <time>2020-07-30T17:36:45Z</time>
      </trkpt>
      <trkpt lat="45.85051" lon="6.43791">
        <ele>2074</ele>
        <time>2020-07-30T17:36:43Z</time>
      </trkpt>
      <trkpt lat="45.85055" lon="6.43784">
        <ele>2070</ele>
        <time>2020-07-30T17:36:40Z</time>
      </trkpt>
      <trkpt lat="45.85054" lon="6.43781">
        <ele>2069</ele>
        <time>2020-07-30T17:36:39Z</time>
      </trkpt>
      <trkpt lat="45.8506" lon="6.43767">
        <ele>2062</ele>
        <time>2020-07-30T17:36:33Z</time>
      </trkpt>
      <trkpt lat="45.85058" lon="6.43768">
        <ele>2063</ele>
        <time>2020-07-30T17:36:32Z</time>
      </trkpt>
      <trkpt lat="45.8506" lon="6.43769">
        <ele>2063</ele>
        <time>2020-07-30T17:36:31Z</time>
      </trkpt>
      <trkpt lat="45.8507" lon="6.43764">
        <ele>2058</ele>
        <time>2020-07-30T17:36:26Z</time>
      </trkpt>
      <trkpt lat="45.85069" lon="6.43754">
        <ele>2055</ele>
        <time>2020-07-30T17:36:22Z</time>
      </trkpt>
      <trkpt lat="45.85075" lon="6.43748">
        <ele>2050</ele>
        <time>2020-07-30T17:36:18Z</time>
      </trkpt>
      <trkpt lat="45.85075" lon="6.4375">
        <ele>2052</ele>
        <time>2020-07-30T17:36:18Z</time>
      </trkpt>
      <trkpt lat="45.85078" lon="6.4375">
        <ele>2051</ele>
        <time>2020-07-30T17:36:16Z</time>
      </trkpt>
      <trkpt lat="45.85081" lon="6.43742">
        <ele>2046</ele>
        <time>2020-07-30T17:36:13Z</time>
      </trkpt>
      <trkpt lat="45.85088" lon="6.43739">
        <ele>2040</ele>
        <time>2020-07-30T17:36:09Z</time>
      </trkpt>
      <trkpt lat="45.85086" lon="6.43737">
        <ele>2041</ele>
        <time>2020-07-30T17:36:08Z</time>
      </trkpt>
      <trkpt lat="45.85092" lon="6.43736">
        <ele>2036</ele>
        <time>2020-07-30T17:36:05Z</time>
      </trkpt>
      <trkpt lat="45.85096" lon="6.43739">
        <ele>2034</ele>
        <time>2020-07-30T17:36:03Z</time>
      </trkpt>
      <trkpt lat="45.85106" lon="6.43729">
        <ele>2022</ele>
        <time>2020-07-30T17:35:57Z</time>
      </trkpt>
      <trkpt lat="45.85115" lon="6.43724">
        <ele>2013</ele>
        <time>2020-07-30T17:35:52Z</time>
      </trkpt>
      <trkpt lat="45.85122" lon="6.43723">
        <ele>2008</ele>
        <time>2020-07-30T17:35:48Z</time>
      </trkpt>
      <trkpt lat="45.85123" lon="6.43718">
        <ele>2005</ele>
        <time>2020-07-30T17:35:47Z</time>
      </trkpt>
      <trkpt lat="45.85121" lon="6.43722">
        <ele>2008</ele>
        <time>2020-07-30T17:35:45Z</time>
      </trkpt>
      <trkpt lat="45.8512" lon="6.43719">
        <ele>2007</ele>
        <time>2020-07-30T17:35:44Z</time>
      </trkpt>
      <trkpt lat="45.85122" lon="6.43723">
        <ele>2008</ele>
        <time>2020-07-30T17:35:42Z</time>
      </trkpt>
      <trkpt lat="45.85131" lon="6.43717">
        <ele>1999</ele>
        <time>2020-07-30T17:35:37Z</time>
      </trkpt>
      <trkpt lat="45.85132" lon="6.43721">
        <ele>2000</ele>
        <time>2020-07-30T17:35:36Z</time>
      </trkpt>
      <trkpt lat="45.85141" lon="6.43723">
        <ele>1994</ele>
        <time>2020-07-30T17:35:31Z</time>
      </trkpt>
      <trkpt lat="45.85144" lon="6.43719">
        <ele>1990</ele>
        <time>2020-07-30T17:35:29Z</time>
      </trkpt>
      <trkpt lat="45.85142" lon="6.43717">
        <ele>1991</ele>
        <time>2020-07-30T17:35:28Z</time>
      </trkpt>
      <trkpt lat="45.85143" lon="6.43711">
        <ele>1987</ele>
        <time>2020-07-30T17:35:26Z</time>
      </trkpt>
      <trkpt lat="45.85145" lon="6.43712">
        <ele>1986</ele>
        <time>2020-07-30T17:35:25Z</time>
      </trkpt>
      <trkpt lat="45.85144" lon="6.4371">
        <ele>1986</ele>
        <time>2020-07-30T17:35:24Z</time>
      </trkpt>
      <trkpt lat="45.85149" lon="6.437">
        <ele>1978</ele>
        <time>2020-07-30T17:35:19Z</time>
      </trkpt>
      <trkpt lat="45.85148" lon="6.43697">
        <ele>1978</ele>
        <time>2020-07-30T17:35:18Z</time>
      </trkpt>
      <trkpt lat="45.85152" lon="6.43701">
        <ele>1977</ele>
        <time>2020-07-30T17:35:16Z</time>
      </trkpt>
      <trkpt lat="45.8515" lon="6.43702">
        <ele>1979</ele>
        <time>2020-07-30T17:35:15Z</time>
      </trkpt>
      <trkpt lat="45.8515" lon="6.43697">
        <ele>1976</ele>
        <time>2020-07-30T17:35:13Z</time>
      </trkpt>
      <trkpt lat="45.85163" lon="6.43699">
        <ele>1968</ele>
        <time>2020-07-30T17:35:06Z</time>
      </trkpt>
      <trkpt lat="45.85167" lon="6.43687">
        <ele>1960</ele>
        <time>2020-07-30T17:35:02Z</time>
      </trkpt>
      <trkpt lat="45.85166" lon="6.43694">
        <ele>1964</ele>
        <time>2020-07-30T17:34:59Z</time>
      </trkpt>
      <trkpt lat="45.85172" lon="6.43693">
        <ele>1959</ele>
        <time>2020-07-30T17:34:56Z</time>
      </trkpt>
      <trkpt lat="45.85173" lon="6.4369">
        <ele>1957</ele>
        <time>2020-07-30T17:34:55Z</time>
      </trkpt>
      <trkpt lat="45.85174" lon="6.43693">
        <ele>1957</ele>
        <time>2020-07-30T17:34:54Z</time>
      </trkpt>
      <trkpt lat="45.85174" lon="6.43691">
        <ele>1957</ele>
        <time>2020-07-30T17:34:53Z</time>
      </trkpt>
      <trkpt lat="45.8518" lon="6.43689">
        <ele>1951</ele>
        <time>2020-07-30T17:34:50Z</time>
      </trkpt>
      <trkpt lat="45.85181" lon="6.43692">
        <ele>1952</ele>
        <time>2020-07-30T17:34:49Z</time>
      </trkpt>
      <trkpt lat="45.85185" lon="6.43692">
        <ele>1949</ele>
        <time>2020-07-30T17:34:47Z</time>
      </trkpt>
      <trkpt lat="45.85186" lon="6.437">
        <ele>1951</ele>
        <time>2020-07-30T17:34:44Z</time>
      </trkpt>
      <trkpt lat="45.85192" lon="6.43696">
        <ele>1945</ele>
        <time>2020-07-30T17:34:41Z</time>
      </trkpt>
      <trkpt lat="45.85201" lon="6.43701">
        <ele>1939</ele>
        <time>2020-07-30T17:34:36Z</time>
      </trkpt>
      <trkpt lat="45.85208" lon="6.43693">
        <ele>1931</ele>
        <time>2020-07-30T17:34:32Z</time>
      </trkpt>
      <trkpt lat="45.85214" lon="6.43692">
        <ele>1926</ele>
        <time>2020-07-30T17:34:29Z</time>
      </trkpt>
      <trkpt lat="45.85217" lon="6.43688">
        <ele>1923</ele>
        <time>2020-07-30T17:34:27Z</time>
      </trkpt>
      <trkpt lat="45.85219" lon="6.43695">
        <ele>1923</ele>
        <time>2020-07-30T17:34:24Z</time>
      </trkpt>
      <trkpt lat="45.85222" lon="6.43697">
        <ele>1921</ele>
        <time>2020-07-30T17:34:22Z</time>
      </trkpt>
      <trkpt lat="45.85232" lon="6.43688">
        <ele>1912</ele>
        <time>2020-07-30T17:34:16Z</time>
      </trkpt>
      <trkpt lat="45.85233" lon="6.4369">
        <ele>1911</ele>
        <time>2020-07-30T17:34:15Z</time>
      </trkpt>
      <trkpt lat="45.85235" lon="6.43689">
        <ele>1910</ele>
        <time>2020-07-30T17:34:14Z</time>
      </trkpt>
      <trkpt lat="45.85241" lon="6.43678">
        <ele>1904</ele>
        <time>2020-07-30T17:34:10Z</time>
      </trkpt>
      <trkpt lat="45.85245" lon="6.43688">
        <ele>1902</ele>
        <time>2020-07-30T17:34:06Z</time>
      </trkpt>
      <trkpt lat="45.85245" lon="6.4368">
        <ele>1901</ele>
        <time>2020-07-30T17:34:03Z</time>
      </trkpt>
      <trkpt lat="45.85247" lon="6.4368">
        <ele>1900</ele>
        <time>2020-07-30T17:34:02Z</time>
      </trkpt>
      <trkpt lat="45.85246" lon="6.43684">
        <ele>1901</ele>
        <time>2020-07-30T17:34:00Z</time>
      </trkpt>
      <trkpt lat="45.8525" lon="6.43674">
        <ele>1897</ele>
        <time>2020-07-30T17:33:56Z</time>
      </trkpt>
      <trkpt lat="45.85256" lon="6.43678">
        <ele>1891</ele>
        <time>2020-07-30T17:33:53Z</time>
      </trkpt>
      <trkpt lat="45.85257" lon="6.43683">
        <ele>1890</ele>
        <time>2020-07-30T17:33:51Z</time>
      </trkpt>
      <trkpt lat="45.85261" lon="6.43684">
        <ele>1886</ele>
        <time>2020-07-30T17:33:49Z</time>
      </trkpt>
      <trkpt lat="45.85265" lon="6.43675">
        <ele>1881</ele>
        <time>2020-07-30T17:33:45Z</time>
      </trkpt>
      <trkpt lat="45.85265" lon="6.43667">
        <ele>1879</ele>
        <time>2020-07-30T17:33:43Z</time>
      </trkpt>
      <trkpt lat="45.85268" lon="6.43665">
        <ele>1875</ele>
        <time>2020-07-30T17:33:41Z</time>
      </trkpt>
      <trkpt lat="45.85267" lon="6.43659">
        <ele>1874</ele>
        <time>2020-07-30T17:33:39Z</time>
      </trkpt>
      <trkpt lat="45.85269" lon="6.43661">
        <ele>1873</ele>
        <time>2020-07-30T17:33:38Z</time>
      </trkpt>
      <trkpt lat="45.85269" lon="6.43668">
        <ele>1875</ele>
        <time>2020-07-30T17:33:35Z</time>
      </trkpt>
      <trkpt lat="45.8527" lon="6.43663">
        <ele>1872</ele>
        <time>2020-07-30T17:33:33Z</time>
      </trkpt>
      <trkpt lat="45.85268" lon="6.43659">
        <ele>1873</ele>
        <time>2020-07-30T17:33:32Z</time>
      </trkpt>
      <trkpt lat="45.85271" lon="6.43658">
        <ele>1869</ele>
        <time>2020-07-30T17:33:30Z</time>
      </trkpt>
      <trkpt lat="45.85273" lon="6.43663">
        <ele>1869</ele>
        <time>2020-07-30T17:33:28Z</time>
      </trkpt>
      <trkpt lat="45.85277" lon="6.43656">
        <ele>1862</ele>
        <time>2020-07-30T17:33:25Z</time>
      </trkpt>
      <trkpt lat="45.85284" lon="6.43651">
        <ele>1852</ele>
        <time>2020-07-30T17:33:21Z</time>
      </trkpt>
      <trkpt lat="45.85294" lon="6.43648">
        <ele>1839</ele>
        <time>2020-07-30T17:33:16Z</time>
      </trkpt>
      <trkpt lat="45.85298" lon="6.43649">
        <ele>1835</ele>
        <time>2020-07-30T17:33:14Z</time>
      </trkpt>
      <trkpt lat="45.85313" lon="6.43638">
        <ele>1814</ele>
        <time>2020-07-30T17:33:05Z</time>
      </trkpt>
      <trkpt lat="45.85315" lon="6.4364">
        <ele>1812</ele>
        <time>2020-07-30T17:33:04Z</time>
      </trkpt>
      <trkpt lat="45.85324" lon="6.43637">
        <ele>1801</ele>
        <time>2020-07-30T17:33:00Z</time>
      </trkpt>
      <trkpt lat="45.85322" lon="6.43632">
        <ele>1801</ele>
        <time>2020-07-30T17:32:58Z</time>
      </trkpt>
      <trkpt lat="45.85324" lon="6.43631">
        <ele>1799</ele>
        <time>2020-07-30T17:32:56Z</time>
      </trkpt>
      <trkpt lat="45.85331" lon="6.4364">
        <ele>1794</ele>
        <time>2020-07-30T17:32:52Z</time>
      </trkpt>
      <trkpt lat="45.85341" lon="6.43644">
        <ele>1789</ele>
        <time>2020-07-30T17:32:47Z</time>
      </trkpt>
      <trkpt lat="45.85346" lon="6.43639">
        <ele>1783</ele>
        <time>2020-07-30T17:32:43Z</time>
      </trkpt>
      <trkpt lat="45.85346" lon="6.43635">
        <ele>1782</ele>
        <time>2020-07-30T17:32:42Z</time>
      </trkpt>
      <trkpt lat="45.85347" lon="6.43638">
        <ele>1782</ele>
        <time>2020-07-30T17:32:41Z</time>
      </trkpt>
      <trkpt lat="45.8535" lon="6.43638">
        <ele>1780</ele>
        <time>2020-07-30T17:32:39Z</time>
      </trkpt>
      <trkpt lat="45.85352" lon="6.43631">
        <ele>1776</ele>
        <time>2020-07-30T17:32:37Z</time>
      </trkpt>
      <trkpt lat="45.85356" lon="6.43633">
        <ele>1775</ele>
        <time>2020-07-30T17:32:35Z</time>
      </trkpt>
      <trkpt lat="45.85361" lon="6.4363">
        <ele>1770</ele>
        <time>2020-07-30T17:32:32Z</time>
      </trkpt>
      <trkpt lat="45.85361" lon="6.43625">
        <ele>1768</ele>
        <time>2020-07-30T17:32:30Z</time>
      </trkpt>
      <trkpt lat="45.85363" lon="6.43626">
        <ele>1767</ele>
        <time>2020-07-30T17:32:29Z</time>
      </trkpt>
      <trkpt lat="45.85368" lon="6.43615">
        <ele>1760</ele>
        <time>2020-07-30T17:32:25Z</time>
      </trkpt>
      <trkpt lat="45.8537" lon="6.43618">
        <ele>1760</ele>
        <time>2020-07-30T17:32:23Z</time>
      </trkpt>
      <trkpt lat="45.85377" lon="6.43604">
        <ele>1750</ele>
        <time>2020-07-30T17:32:17Z</time>
      </trkpt>
      <trkpt lat="45.85381" lon="6.4361">
        <ele>1749</ele>
        <time>2020-07-30T17:32:14Z</time>
      </trkpt>
      <trkpt lat="45.85385" lon="6.43605">
        <ele>1745</ele>
        <time>2020-07-30T17:32:12Z</time>
      </trkpt>
      <trkpt lat="45.85392" lon="6.43608">
        <ele>1742</ele>
        <time>2020-07-30T17:32:08Z</time>
      </trkpt>
      <trkpt lat="45.854" lon="6.43618">
        <ele>1741</ele>
        <time>2020-07-30T17:32:03Z</time>
      </trkpt>
      <trkpt lat="45.85417" lon="6.43651">
        <ele>1743</ele>
        <time>2020-07-30T17:31:48Z</time>
      </trkpt>
      <trkpt lat="45.85423" lon="6.43655">
        <ele>1743</ele>
        <time>2020-07-30T17:31:45Z</time>
      </trkpt>
      <trkpt lat="45.85422" lon="6.43663">
        <ele>1746</ele>
        <time>2020-07-30T17:31:42Z</time>
      </trkpt>
      <trkpt lat="45.85446" lon="6.43694">
        <ele>1753</ele>
        <time>2020-07-30T17:31:26Z</time>
      </trkpt>
      <trkpt lat="45.85447" lon="6.43698">
        <ele>1754</ele>
        <time>2020-07-30T17:31:25Z</time>
      </trkpt>
      <trkpt lat="45.85444" lon="6.43705">
        <ele>1758</ele>
        <time>2020-07-30T17:31:22Z</time>
      </trkpt>
      <trkpt lat="45.85451" lon="6.43714">
        <ele>1760</ele>
        <time>2020-07-30T17:31:17Z</time>
      </trkpt>
      <trkpt lat="45.85455" lon="6.43737">
        <ele>1768</ele>
        <time>2020-07-30T17:31:09Z</time>
      </trkpt>
      <trkpt lat="45.85475" lon="6.43766">
        <ele>1776</ele>
        <time>2020-07-30T17:30:54Z</time>
      </trkpt>
      <trkpt lat="45.85486" lon="6.43792">
        <ele>1785</ele>
        <time>2020-07-30T17:30:44Z</time>
      </trkpt>
      <trkpt lat="45.85486" lon="6.43802">
        <ele>1790</ele>
        <time>2020-07-30T17:30:40Z</time>
      </trkpt>
      <trkpt lat="45.85489" lon="6.43808">
        <ele>1792</ele>
        <time>2020-07-30T17:30:38Z</time>
      </trkpt>
      <trkpt lat="45.85511" lon="6.4384">
        <ele>1800</ele>
        <time>2020-07-30T17:30:22Z</time>
      </trkpt>
      <trkpt lat="45.85508" lon="6.43864">
        <ele>1810</ele>
        <time>2020-07-30T17:30:14Z</time>
      </trkpt>
      <trkpt lat="45.85518" lon="6.43887">
        <ele>1817</ele>
        <time>2020-07-30T17:30:04Z</time>
      </trkpt>
      <trkpt lat="45.85528" lon="6.439">
        <ele>1820</ele>
        <time>2020-07-30T17:29:57Z</time>
      </trkpt>
      <trkpt lat="45.85533" lon="6.43903">
        <ele>1820</ele>
        <time>2020-07-30T17:29:55Z</time>
      </trkpt>
      <trkpt lat="45.85554" lon="6.43953">
        <ele>1830</ele>
        <time>2020-07-30T17:29:34Z</time>
      </trkpt>
      <trkpt lat="45.85569" lon="6.43981">
        <ele>1833</ele>
        <time>2020-07-30T17:29:22Z</time>
      </trkpt>
      <trkpt lat="45.85588" lon="6.44043">
        <ele>1853</ele>
        <time>2020-07-30T17:28:58Z</time>
      </trkpt>
      <trkpt lat="45.85595" lon="6.44059">
        <ele>1858</ele>
        <time>2020-07-30T17:28:52Z</time>
      </trkpt>
      <trkpt lat="45.85647" lon="6.44153">
        <ele>1881</ele>
        <time>2020-07-30T17:28:10Z</time>
      </trkpt>
      <trkpt lat="45.85649" lon="6.44165">
        <ele>1885</ele>
        <time>2020-07-30T17:28:06Z</time>
      </trkpt>
      <trkpt lat="45.85666" lon="6.4419">
        <ele>1890</ele>
        <time>2020-07-30T17:27:54Z</time>
      </trkpt>
      <trkpt lat="45.85677" lon="6.44216">
        <ele>1897</ele>
        <time>2020-07-30T17:27:43Z</time>
      </trkpt>
      <trkpt lat="45.85693" lon="6.44245">
        <ele>1904</ele>
        <time>2020-07-30T17:27:30Z</time>
      </trkpt>
      <trkpt lat="45.85699" lon="6.44264">
        <ele>1910</ele>
        <time>2020-07-30T17:27:23Z</time>
      </trkpt>
      <trkpt lat="45.85712" lon="6.44284">
        <ele>1915</ele>
        <time>2020-07-30T17:27:13Z</time>
      </trkpt>
      <trkpt lat="45.85712" lon="6.44304">
        <ele>1922</ele>
        <time>2020-07-30T17:27:06Z</time>
      </trkpt>
      <trkpt lat="45.85716" lon="6.44329">
        <ele>1931</ele>
        <time>2020-07-30T17:26:57Z</time>
      </trkpt>
      <trkpt lat="45.85711" lon="6.4434">
        <ele>1936</ele>
        <time>2020-07-30T17:26:53Z</time>
      </trkpt>
      <trkpt lat="45.85714" lon="6.44362">
        <ele>1943</ele>
        <time>2020-07-30T17:26:45Z</time>
      </trkpt>
      <trkpt lat="45.85711" lon="6.44372">
        <ele>1947</ele>
        <time>2020-07-30T17:26:41Z</time>
      </trkpt>
      <trkpt lat="45.85726" lon="6.44432">
        <ele>1965</ele>
        <time>2020-07-30T17:26:19Z</time>
      </trkpt>
      <trkpt lat="45.8573" lon="6.44439">
        <ele>1967</ele>
        <time>2020-07-30T17:26:16Z</time>
      </trkpt>
      <trkpt lat="45.85739" lon="6.44446">
        <ele>1968</ele>
        <time>2020-07-30T17:26:11Z</time>
      </trkpt>
      <trkpt lat="45.85745" lon="6.44458">
        <ele>1972</ele>
        <time>2020-07-30T17:26:06Z</time>
      </trkpt>
      <trkpt lat="45.85774" lon="6.44534">
        <ele>1996</ele>
        <time>2020-07-30T17:25:35Z</time>
      </trkpt>
      <trkpt lat="45.85777" lon="6.44551">
        <ele>2001</ele>
        <time>2020-07-30T17:25:29Z</time>
      </trkpt>
      <trkpt lat="45.85793" lon="6.44576">
        <ele>2008</ele>
        <time>2020-07-30T17:25:17Z</time>
      </trkpt>
      <trkpt lat="45.85796" lon="6.44595">
        <ele>2015</ele>
        <time>2020-07-30T17:25:11Z</time>
      </trkpt>
      <trkpt lat="45.85806" lon="6.44617">
        <ele>2023</ele>
        <time>2020-07-30T17:25:01Z</time>
      </trkpt>
      <trkpt lat="45.85818" lon="6.44626">
        <ele>2025</ele>
        <time>2020-07-30T17:24:55Z</time>
      </trkpt>
      <trkpt lat="45.85824" lon="6.44626">
        <ele>2024</ele>
        <time>2020-07-30T17:24:52Z</time>
      </trkpt>
      <trkpt lat="45.8583" lon="6.44655">
        <ele>2035</ele>
        <time>2020-07-30T17:24:41Z</time>
      </trkpt>
      <trkpt lat="45.85845" lon="6.44681">
        <ele>2048</ele>
        <time>2020-07-30T17:24:29Z</time>
      </trkpt>
      <trkpt lat="45.85849" lon="6.44699">
        <ele>2057</ele>
        <time>2020-07-30T17:24:23Z</time>
      </trkpt>
      <trkpt lat="45.85851" lon="6.44732">
        <ele>2073</ele>
        <time>2020-07-30T17:24:11Z</time>
      </trkpt>
      <trkpt lat="45.85855" lon="6.44744">
        <ele>2080</ele>
        <time>2020-07-30T17:24:07Z</time>
      </trkpt>
      <trkpt lat="45.85852" lon="6.4476">
        <ele>2083</ele>
        <time>2020-07-30T17:24:01Z</time>
      </trkpt>
      <trkpt lat="45.85854" lon="6.44781">
        <ele>2089</ele>
        <time>2020-07-30T17:23:53Z</time>
      </trkpt>
      <trkpt lat="45.8586" lon="6.44794">
        <ele>2094</ele>
        <time>2020-07-30T17:23:48Z</time>
      </trkpt>
      <trkpt lat="45.85862" lon="6.44808">
        <ele>2097</ele>
        <time>2020-07-30T17:23:43Z</time>
      </trkpt>
      <trkpt lat="45.85868" lon="6.44817">
        <ele>2101</ele>
        <time>2020-07-30T17:23:39Z</time>
      </trkpt>
      <trkpt lat="45.85874" lon="6.44837">
        <ele>2107</ele>
        <time>2020-07-30T17:23:31Z</time>
      </trkpt>
      <trkpt lat="45.85878" lon="6.4484">
        <ele>2109</ele>
        <time>2020-07-30T17:23:29Z</time>
      </trkpt>
      <trkpt lat="45.85886" lon="6.44859">
        <ele>2115</ele>
        <time>2020-07-30T17:23:21Z</time>
      </trkpt>
      <trkpt lat="45.85886" lon="6.44876">
        <ele>2118</ele>
        <time>2020-07-30T17:23:15Z</time>
      </trkpt>
      <trkpt lat="45.85892" lon="6.4489">
        <ele>2122</ele>
        <time>2020-07-30T17:23:09Z</time>
      </trkpt>
      <trkpt lat="45.85892" lon="6.44922">
        <ele>2128</ele>
        <time>2020-07-30T17:22:58Z</time>
      </trkpt>
      <trkpt lat="45.85895" lon="6.44932">
        <ele>2132</ele>
        <time>2020-07-30T17:22:54Z</time>
      </trkpt>
      <trkpt lat="45.85896" lon="6.44955">
        <ele>2140</ele>
        <time>2020-07-30T17:22:46Z</time>
      </trkpt>
      <trkpt lat="45.85903" lon="6.44971">
        <ele>2146</ele>
        <time>2020-07-30T17:22:40Z</time>
      </trkpt>
      <trkpt lat="45.85911" lon="6.44978">
        <ele>2149</ele>
        <time>2020-07-30T17:22:35Z</time>
      </trkpt>
      <trkpt lat="45.85922" lon="6.45">
        <ele>2161</ele>
        <time>2020-07-30T17:22:26Z</time>
      </trkpt>
      <trkpt lat="45.85931" lon="6.45003">
        <ele>2168</ele>
        <time>2020-07-30T17:22:21Z</time>
      </trkpt>
      <trkpt lat="45.85932" lon="6.45014">
        <ele>2172</ele>
        <time>2020-07-30T17:22:17Z</time>
      </trkpt>
      <trkpt lat="45.8593" lon="6.45023">
        <ele>2175</ele>
        <time>2020-07-30T17:22:14Z</time>
      </trkpt>
      <trkpt lat="45.85938" lon="6.45041">
        <ele>2186</ele>
        <time>2020-07-30T17:22:07Z</time>
      </trkpt>
      <trkpt lat="45.85939" lon="6.45081">
        <ele>2200</ele>
        <time>2020-07-30T17:21:53Z</time>
      </trkpt>
      <trkpt lat="45.85944" lon="6.45087">
        <ele>2204</ele>
        <time>2020-07-30T17:21:49Z</time>
      </trkpt>
      <trkpt lat="45.85942" lon="6.45098">
        <ele>2206</ele>
        <time>2020-07-30T17:21:45Z</time>
      </trkpt>
      <trkpt lat="45.85947" lon="6.45118">
        <ele>2213</ele>
        <time>2020-07-30T17:21:38Z</time>
      </trkpt>
      <trkpt lat="45.85947" lon="6.45142">
        <ele>2219</ele>
        <time>2020-07-30T17:21:30Z</time>
      </trkpt>
      <trkpt lat="45.85945" lon="6.45147">
        <ele>2220</ele>
        <time>2020-07-30T17:21:28Z</time>
      </trkpt>
      <trkpt lat="45.85946" lon="6.45155">
        <ele>2222</ele>
        <time>2020-07-30T17:21:25Z</time>
      </trkpt>
      <trkpt lat="45.85949" lon="6.45158">
        <ele>2223</ele>
        <time>2020-07-30T17:21:23Z</time>
      </trkpt>
      <trkpt lat="45.85947" lon="6.45188">
        <ele>2228</ele>
        <time>2020-07-30T17:21:12Z</time>
      </trkpt>
      <trkpt lat="45.8595" lon="6.45196">
        <ele>2229</ele>
        <time>2020-07-30T17:21:09Z</time>
      </trkpt>
      <trkpt lat="45.85955" lon="6.452">
        <ele>2229</ele>
        <time>2020-07-30T17:21:06Z</time>
      </trkpt>
      <trkpt lat="45.85962" lon="6.45198">
        <ele>2228</ele>
        <time>2020-07-30T17:21:03Z</time>
      </trkpt>
      <trkpt lat="45.85969" lon="6.45192">
        <ele>2226</ele>
        <time>2020-07-30T17:20:59Z</time>
      </trkpt>
      <trkpt lat="45.85977" lon="6.45196">
        <ele>2225</ele>
        <time>2020-07-30T17:20:54Z</time>
      </trkpt>
      <trkpt lat="45.85977" lon="6.452">
        <ele>2226</ele>
        <time>2020-07-30T17:20:53Z</time>
      </trkpt>
      <trkpt lat="45.85982" lon="6.452">
        <ele>2225</ele>
        <time>2020-07-30T17:20:51Z</time>
      </trkpt>
      <trkpt lat="45.85983" lon="6.45202">
        <ele>2225</ele>
        <time>2020-07-30T17:20:50Z</time>
      </trkpt>
      <trkpt lat="45.85988" lon="6.452">
        <ele>2224</ele>
        <time>2020-07-30T17:20:47Z</time>
      </trkpt>
      <trkpt lat="45.8599" lon="6.45209">
        <ele>2223</ele>
        <time>2020-07-30T17:20:44Z</time>
      </trkpt>
      <trkpt lat="45.85996" lon="6.45211">
        <ele>2222</ele>
        <time>2020-07-30T17:20:41Z</time>
      </trkpt>
      <trkpt lat="45.86006" lon="6.45208">
        <ele>2219</ele>
        <time>2020-07-30T17:20:36Z</time>
      </trkpt>
      <trkpt lat="45.8601" lon="6.45209">
        <ele>2217</ele>
        <time>2020-07-30T17:20:34Z</time>
      </trkpt>
      <trkpt lat="45.86014" lon="6.452">
        <ele>2217</ele>
        <time>2020-07-30T17:20:30Z</time>
      </trkpt>
      <trkpt lat="45.86019" lon="6.45199">
        <ele>2215</ele>
        <time>2020-07-30T17:20:27Z</time>
      </trkpt>
      <trkpt lat="45.8602" lon="6.45204">
        <ele>2214</ele>
        <time>2020-07-30T17:20:26Z</time>
      </trkpt>
      <trkpt lat="45.86023" lon="6.45204">
        <ele>2213</ele>
        <time>2020-07-30T17:20:24Z</time>
      </trkpt>
      <trkpt lat="45.86023" lon="6.45211">
        <ele>2211</ele>
        <time>2020-07-30T17:20:22Z</time>
      </trkpt>
      <trkpt lat="45.86028" lon="6.4521">
        <ele>2209</ele>
        <time>2020-07-30T17:20:19Z</time>
      </trkpt>
      <trkpt lat="45.86032" lon="6.45213">
        <ele>2207</ele>
        <time>2020-07-30T17:20:17Z</time>
      </trkpt>
      <trkpt lat="45.86037" lon="6.45223">
        <ele>2202</ele>
        <time>2020-07-30T17:20:13Z</time>
      </trkpt>
      <trkpt lat="45.86055" lon="6.45226">
        <ele>2192</ele>
        <time>2020-07-30T17:20:03Z</time>
      </trkpt>
      <trkpt lat="45.86055" lon="6.45232">
        <ele>2190</ele>
        <time>2020-07-30T17:20:01Z</time>
      </trkpt>
      <trkpt lat="45.86061" lon="6.4523">
        <ele>2188</ele>
        <time>2020-07-30T17:19:58Z</time>
      </trkpt>
      <trkpt lat="45.86067" lon="6.45224">
        <ele>2187</ele>
        <time>2020-07-30T17:19:55Z</time>
      </trkpt>
      <trkpt lat="45.86066" lon="6.45233">
        <ele>2184</ele>
        <time>2020-07-30T17:19:51Z</time>
      </trkpt>
      <trkpt lat="45.86068" lon="6.45239">
        <ele>2180</ele>
        <time>2020-07-30T17:19:49Z</time>
      </trkpt>
      <trkpt lat="45.86074" lon="6.45239">
        <ele>2177</ele>
        <time>2020-07-30T17:19:46Z</time>
      </trkpt>
      <trkpt lat="45.86083" lon="6.45235">
        <ele>2174</ele>
        <time>2020-07-30T17:19:41Z</time>
      </trkpt>
      <trkpt lat="45.86087" lon="6.45228">
        <ele>2174</ele>
        <time>2020-07-30T17:19:38Z</time>
      </trkpt>
      <trkpt lat="45.86091" lon="6.45226">
        <ele>2172</ele>
        <time>2020-07-30T17:19:36Z</time>
      </trkpt>
      <trkpt lat="45.86098" lon="6.45233">
        <ele>2162</ele>
        <time>2020-07-30T17:19:32Z</time>
      </trkpt>
      <trkpt lat="45.86113" lon="6.45223">
        <ele>2155</ele>
        <time>2020-07-30T17:19:24Z</time>
      </trkpt>
      <trkpt lat="45.86121" lon="6.45214">
        <ele>2153</ele>
        <time>2020-07-30T17:19:19Z</time>
      </trkpt>
      <trkpt lat="45.86125" lon="6.45213">
        <ele>2150</ele>
        <time>2020-07-30T17:19:16Z</time>
      </trkpt>
      <trkpt lat="45.86129" lon="6.45214">
        <ele>2146</ele>
        <time>2020-07-30T17:19:14Z</time>
      </trkpt>
      <trkpt lat="45.86135" lon="6.45223">
        <ele>2136</ele>
        <time>2020-07-30T17:19:10Z</time>
      </trkpt>
      <trkpt lat="45.86137" lon="6.45222">
        <ele>2135</ele>
        <time>2020-07-30T17:19:09Z</time>
      </trkpt>
      <trkpt lat="45.86141" lon="6.45226">
        <ele>2129</ele>
        <time>2020-07-30T17:19:07Z</time>
      </trkpt>
      <trkpt lat="45.86153" lon="6.45227">
        <ele>2118</ele>
        <time>2020-07-30T17:19:01Z</time>
      </trkpt>
      <trkpt lat="45.8615" lon="6.45215">
        <ele>2128</ele>
        <time>2020-07-30T17:18:56Z</time>
      </trkpt>
      <trkpt lat="45.86152" lon="6.45206">
        <ele>2131</ele>
        <time>2020-07-30T17:18:53Z</time>
      </trkpt>
      <trkpt lat="45.86156" lon="6.45197">
        <ele>2133</ele>
        <time>2020-07-30T17:18:49Z</time>
      </trkpt>
      <trkpt lat="45.86162" lon="6.45196">
        <ele>2129</ele>
        <time>2020-07-30T17:18:46Z</time>
      </trkpt>
      <trkpt lat="45.86165" lon="6.45191">
        <ele>2129</ele>
        <time>2020-07-30T17:18:44Z</time>
      </trkpt>
      <trkpt lat="45.86168" lon="6.45191">
        <ele>2127</ele>
        <time>2020-07-30T17:18:42Z</time>
      </trkpt>
      <trkpt lat="45.86172" lon="6.45195">
        <ele>2121</ele>
        <time>2020-07-30T17:18:40Z</time>
      </trkpt>
      <trkpt lat="45.86176" lon="6.45194">
        <ele>2119</ele>
        <time>2020-07-30T17:18:38Z</time>
      </trkpt>
      <trkpt lat="45.86178" lon="6.45204">
        <ele>2112</ele>
        <time>2020-07-30T17:18:34Z</time>
      </trkpt>
      <trkpt lat="45.86185" lon="6.45204">
        <ele>2107</ele>
        <time>2020-07-30T17:18:31Z</time>
      </trkpt>
      <trkpt lat="45.86185" lon="6.45209">
        <ele>2104</ele>
        <time>2020-07-30T17:18:29Z</time>
      </trkpt>
      <trkpt lat="45.86179" lon="6.45215">
        <ele>2105</ele>
        <time>2020-07-30T17:18:25Z</time>
      </trkpt>
      <trkpt lat="45.86182" lon="6.45217">
        <ele>2102</ele>
        <time>2020-07-30T17:18:24Z</time>
      </trkpt>
      <trkpt lat="45.86179" lon="6.45229">
        <ele>2097</ele>
        <time>2020-07-30T17:18:19Z</time>
      </trkpt>
      <trkpt lat="45.86181" lon="6.45228">
        <ele>2096</ele>
        <time>2020-07-30T17:18:18Z</time>
      </trkpt>
      <trkpt lat="45.86182" lon="6.45232">
        <ele>2093</ele>
        <time>2020-07-30T17:18:17Z</time>
      </trkpt>
      <trkpt lat="45.86185" lon="6.45229">
        <ele>2093</ele>
        <time>2020-07-30T17:18:15Z</time>
      </trkpt>
      <trkpt lat="45.86189" lon="6.45237">
        <ele>2085</ele>
        <time>2020-07-30T17:18:11Z</time>
      </trkpt>
      <trkpt lat="45.86203" lon="6.45229">
        <ele>2080</ele>
        <time>2020-07-30T17:18:04Z</time>
      </trkpt>
      <trkpt lat="45.86211" lon="6.45237">
        <ele>2070</ele>
        <time>2020-07-30T17:17:59Z</time>
      </trkpt>
      <trkpt lat="45.86215" lon="6.45236">
        <ele>2068</ele>
        <time>2020-07-30T17:17:57Z</time>
      </trkpt>
      <trkpt lat="45.86216" lon="6.45249">
        <ele>2060</ele>
        <time>2020-07-30T17:17:52Z</time>
      </trkpt>
      <trkpt lat="45.86227" lon="6.45247">
        <ele>2053</ele>
        <time>2020-07-30T17:17:47Z</time>
      </trkpt>
      <trkpt lat="45.86239" lon="6.4524">
        <ele>2049</ele>
        <time>2020-07-30T17:17:40Z</time>
      </trkpt>
      <trkpt lat="45.86245" lon="6.4524">
        <ele>2045</ele>
        <time>2020-07-30T17:17:37Z</time>
      </trkpt>
      <trkpt lat="45.86247" lon="6.45247">
        <ele>2040</ele>
        <time>2020-07-30T17:17:35Z</time>
      </trkpt>
      <trkpt lat="45.8625" lon="6.45243">
        <ele>2040</ele>
        <time>2020-07-30T17:17:33Z</time>
      </trkpt>
      <trkpt lat="45.86261" lon="6.4524">
        <ele>2035</ele>
        <time>2020-07-30T17:17:27Z</time>
      </trkpt>
      <trkpt lat="45.86265" lon="6.45241">
        <ele>2032</ele>
        <time>2020-07-30T17:17:25Z</time>
      </trkpt>
      <trkpt lat="45.86266" lon="6.45239">
        <ele>2032</ele>
        <time>2020-07-30T17:17:24Z</time>
      </trkpt>
      <trkpt lat="45.86267" lon="6.45253">
        <ele>2025</ele>
        <time>2020-07-30T17:17:19Z</time>
      </trkpt>
      <trkpt lat="45.86272" lon="6.45252">
        <ele>2022</ele>
        <time>2020-07-30T17:17:17Z</time>
      </trkpt>
      <trkpt lat="45.86273" lon="6.45254">
        <ele>2021</ele>
        <time>2020-07-30T17:17:16Z</time>
      </trkpt>
      <trkpt lat="45.86282" lon="6.45255">
        <ele>2015</ele>
        <time>2020-07-30T17:17:11Z</time>
      </trkpt>
      <trkpt lat="45.86282" lon="6.4526">
        <ele>2013</ele>
        <time>2020-07-30T17:17:10Z</time>
      </trkpt>
      <trkpt lat="45.86293" lon="6.45258">
        <ele>2007</ele>
        <time>2020-07-30T17:17:04Z</time>
      </trkpt>
      <trkpt lat="45.86297" lon="6.45262">
        <ele>2003</ele>
        <time>2020-07-30T17:17:02Z</time>
      </trkpt>
      <trkpt lat="45.86303" lon="6.45263">
        <ele>1998</ele>
        <time>2020-07-30T17:16:59Z</time>
      </trkpt>
      <trkpt lat="45.86303" lon="6.45273">
        <ele>1994</ele>
        <time>2020-07-30T17:16:55Z</time>
      </trkpt>
      <trkpt lat="45.86307" lon="6.45275">
        <ele>1990</ele>
        <time>2020-07-30T17:16:53Z</time>
      </trkpt>
      <trkpt lat="45.86306" lon="6.45281">
        <ele>1988</ele>
        <time>2020-07-30T17:16:51Z</time>
      </trkpt>
      <trkpt lat="45.86312" lon="6.45285">
        <ele>1982</ele>
        <time>2020-07-30T17:16:48Z</time>
      </trkpt>
      <trkpt lat="45.86315" lon="6.45284">
        <ele>1981</ele>
        <time>2020-07-30T17:16:46Z</time>
      </trkpt>
      <trkpt lat="45.86318" lon="6.45298">
        <ele>1972</ele>
        <time>2020-07-30T17:16:41Z</time>
      </trkpt>
      <trkpt lat="45.86327" lon="6.45295">
        <ele>1967</ele>
        <time>2020-07-30T17:16:36Z</time>
      </trkpt>
      <trkpt lat="45.86329" lon="6.45302">
        <ele>1962</ele>
        <time>2020-07-30T17:16:34Z</time>
      </trkpt>
      <trkpt lat="45.86337" lon="6.45304">
        <ele>1955</ele>
        <time>2020-07-30T17:16:30Z</time>
      </trkpt>
      <trkpt lat="45.86339" lon="6.45315">
        <ele>1948</ele>
        <time>2020-07-30T17:16:26Z</time>
      </trkpt>
      <trkpt lat="45.86345" lon="6.45314">
        <ele>1946</ele>
        <time>2020-07-30T17:16:23Z</time>
      </trkpt>
      <trkpt lat="45.86346" lon="6.4532">
        <ele>1942</ele>
        <time>2020-07-30T17:16:20Z</time>
      </trkpt>
      <trkpt lat="45.8635" lon="6.45321">
        <ele>1939</ele>
        <time>2020-07-30T17:16:18Z</time>
      </trkpt>
      <trkpt lat="45.86351" lon="6.45327">
        <ele>1936</ele>
        <time>2020-07-30T17:16:16Z</time>
      </trkpt>
      <trkpt lat="45.86355" lon="6.45327">
        <ele>1934</ele>
        <time>2020-07-30T17:16:14Z</time>
      </trkpt>
      <trkpt lat="45.86356" lon="6.45339">
        <ele>1929</ele>
        <time>2020-07-30T17:16:10Z</time>
      </trkpt>
      <trkpt lat="45.86368" lon="6.45336">
        <ele>1923</ele>
        <time>2020-07-30T17:16:04Z</time>
      </trkpt>
      <trkpt lat="45.86372" lon="6.45346">
        <ele>1918</ele>
        <time>2020-07-30T17:16:00Z</time>
      </trkpt>
      <trkpt lat="45.86375" lon="6.45345">
        <ele>1917</ele>
        <time>2020-07-30T17:15:58Z</time>
      </trkpt>
      <trkpt lat="45.86376" lon="6.45352">
        <ele>1914</ele>
        <time>2020-07-30T17:15:56Z</time>
      </trkpt>
      <trkpt lat="45.8638" lon="6.45351">
        <ele>1912</ele>
        <time>2020-07-30T17:15:54Z</time>
      </trkpt>
      <trkpt lat="45.86382" lon="6.45357">
        <ele>1909</ele>
        <time>2020-07-30T17:15:52Z</time>
      </trkpt>
      <trkpt lat="45.86386" lon="6.45355">
        <ele>1908</ele>
        <time>2020-07-30T17:15:49Z</time>
      </trkpt>
      <trkpt lat="45.86388" lon="6.45381">
        <ele>1898</ele>
        <time>2020-07-30T17:15:40Z</time>
      </trkpt>
      <trkpt lat="45.86393" lon="6.4538">
        <ele>1896</ele>
        <time>2020-07-30T17:15:38Z</time>
      </trkpt>
      <trkpt lat="45.86395" lon="6.45385">
        <ele>1893</ele>
        <time>2020-07-30T17:15:36Z</time>
      </trkpt>
      <trkpt lat="45.86399" lon="6.45385">
        <ele>1891</ele>
        <time>2020-07-30T17:15:34Z</time>
      </trkpt>
      <trkpt lat="45.86401" lon="6.45401">
        <ele>1884</ele>
        <time>2020-07-30T17:15:28Z</time>
      </trkpt>
      <trkpt lat="45.86396" lon="6.45416">
        <ele>1882</ele>
        <time>2020-07-30T17:15:22Z</time>
      </trkpt>
      <trkpt lat="45.86395" lon="6.45429">
        <ele>1880</ele>
        <time>2020-07-30T17:15:18Z</time>
      </trkpt>
      <trkpt lat="45.86403" lon="6.45438">
        <ele>1873</ele>
        <time>2020-07-30T17:15:13Z</time>
      </trkpt>
      <trkpt lat="45.86398" lon="6.45455">
        <ele>1872</ele>
        <time>2020-07-30T17:15:06Z</time>
      </trkpt>
      <trkpt lat="45.864" lon="6.45453">
        <ele>1872</ele>
        <time>2020-07-30T17:15:05Z</time>
      </trkpt>
      <trkpt lat="45.86403" lon="6.45456">
        <ele>1869</ele>
        <time>2020-07-30T17:15:03Z</time>
      </trkpt>
      <trkpt lat="45.86406" lon="6.45473">
        <ele>1863</ele>
        <time>2020-07-30T17:14:57Z</time>
      </trkpt>
      <trkpt lat="45.8641" lon="6.4548">
        <ele>1859</ele>
        <time>2020-07-30T17:14:54Z</time>
      </trkpt>
      <trkpt lat="45.86413" lon="6.45482">
        <ele>1857</ele>
        <time>2020-07-30T17:14:52Z</time>
      </trkpt>
      <trkpt lat="45.86415" lon="6.4548">
        <ele>1856</ele>
        <time>2020-07-30T17:14:51Z</time>
      </trkpt>
      <trkpt lat="45.86423" lon="6.45485">
        <ele>1850</ele>
        <time>2020-07-30T17:14:47Z</time>
      </trkpt>
      <trkpt lat="45.86424" lon="6.45483">
        <ele>1850</ele>
        <time>2020-07-30T17:14:46Z</time>
      </trkpt>
      <trkpt lat="45.86427" lon="6.45488">
        <ele>1848</ele>
        <time>2020-07-30T17:14:44Z</time>
      </trkpt>
      <trkpt lat="45.8643" lon="6.45487">
        <ele>1846</ele>
        <time>2020-07-30T17:14:42Z</time>
      </trkpt>
      <trkpt lat="45.86434" lon="6.45491">
        <ele>1844</ele>
        <time>2020-07-30T17:14:40Z</time>
      </trkpt>
      <trkpt lat="45.86439" lon="6.45489">
        <ele>1842</ele>
        <time>2020-07-30T17:14:37Z</time>
      </trkpt>
      <trkpt lat="45.86444" lon="6.45494">
        <ele>1838</ele>
        <time>2020-07-30T17:14:34Z</time>
      </trkpt>
      <trkpt lat="45.86448" lon="6.45495">
        <ele>1836</ele>
        <time>2020-07-30T17:14:32Z</time>
      </trkpt>
      <trkpt lat="45.86451" lon="6.45492">
        <ele>1835</ele>
        <time>2020-07-30T17:14:30Z</time>
      </trkpt>
      <trkpt lat="45.86456" lon="6.45499">
        <ele>1831</ele>
        <time>2020-07-30T17:14:27Z</time>
      </trkpt>
      <trkpt lat="45.86468" lon="6.45491">
        <ele>1827</ele>
        <time>2020-07-30T17:14:20Z</time>
      </trkpt>
      <trkpt lat="45.86474" lon="6.45498">
        <ele>1822</ele>
        <time>2020-07-30T17:14:16Z</time>
      </trkpt>
      <trkpt lat="45.86478" lon="6.45498">
        <ele>1820</ele>
        <time>2020-07-30T17:14:14Z</time>
      </trkpt>
      <trkpt lat="45.86478" lon="6.45501">
        <ele>1820</ele>
        <time>2020-07-30T17:14:13Z</time>
      </trkpt>
      <trkpt lat="45.86483" lon="6.45501">
        <ele>1817</ele>
        <time>2020-07-30T17:14:11Z</time>
      </trkpt>
      <trkpt lat="45.86485" lon="6.45505">
        <ele>1815</ele>
        <time>2020-07-30T17:14:09Z</time>
      </trkpt>
      <trkpt lat="45.86494" lon="6.45504">
        <ele>1811</ele>
        <time>2020-07-30T17:14:04Z</time>
      </trkpt>
      <trkpt lat="45.86501" lon="6.45514">
        <ele>1804</ele>
        <time>2020-07-30T17:13:59Z</time>
      </trkpt>
      <trkpt lat="45.86507" lon="6.45513">
        <ele>1801</ele>
        <time>2020-07-30T17:13:56Z</time>
      </trkpt>
      <trkpt lat="45.86514" lon="6.45518">
        <ele>1795</ele>
        <time>2020-07-30T17:13:52Z</time>
      </trkpt>
      <trkpt lat="45.8652" lon="6.45515">
        <ele>1793</ele>
        <time>2020-07-30T17:13:49Z</time>
      </trkpt>
      <trkpt lat="45.86525" lon="6.45517">
        <ele>1789</ele>
        <time>2020-07-30T17:13:47Z</time>
      </trkpt>
      <trkpt lat="45.86541" lon="6.45515">
        <ele>1780</ele>
        <time>2020-07-30T17:13:39Z</time>
      </trkpt>
      <trkpt lat="45.86549" lon="6.45519">
        <ele>1774</ele>
        <time>2020-07-30T17:13:34Z</time>
      </trkpt>
      <trkpt lat="45.86552" lon="6.45512">
        <ele>1775</ele>
        <time>2020-07-30T17:13:31Z</time>
      </trkpt>
      <trkpt lat="45.86555" lon="6.45511">
        <ele>1773</ele>
        <time>2020-07-30T17:13:30Z</time>
      </trkpt>
      <trkpt lat="45.86559" lon="6.45517">
        <ele>1769</ele>
        <time>2020-07-30T17:13:27Z</time>
      </trkpt>
      <trkpt lat="45.86561" lon="6.45516">
        <ele>1768</ele>
        <time>2020-07-30T17:13:26Z</time>
      </trkpt>
      <trkpt lat="45.86564" lon="6.45519">
        <ele>1766</ele>
        <time>2020-07-30T17:13:24Z</time>
      </trkpt>
      <trkpt lat="45.86564" lon="6.45522">
        <ele>1765</ele>
        <time>2020-07-30T17:13:23Z</time>
      </trkpt>
      <trkpt lat="45.86579" lon="6.45528">
        <ele>1754</ele>
        <time>2020-07-30T17:13:15Z</time>
      </trkpt>
      <trkpt lat="45.86585" lon="6.45526">
        <ele>1751</ele>
        <time>2020-07-30T17:13:12Z</time>
      </trkpt>
      <trkpt lat="45.86589" lon="6.45528">
        <ele>1749</ele>
        <time>2020-07-30T17:13:10Z</time>
      </trkpt>
      <trkpt lat="45.86589" lon="6.45533">
        <ele>1748</ele>
        <time>2020-07-30T17:13:08Z</time>
      </trkpt>
      <trkpt lat="45.86592" lon="6.45533">
        <ele>1746</ele>
        <time>2020-07-30T17:13:07Z</time>
      </trkpt>
      <trkpt lat="45.86595" lon="6.45539">
        <ele>1743</ele>
        <time>2020-07-30T17:13:04Z</time>
      </trkpt>
      <trkpt lat="45.86604" lon="6.45541">
        <ele>1738</ele>
        <time>2020-07-30T17:13:00Z</time>
      </trkpt>
      <trkpt lat="45.86605" lon="6.45546">
        <ele>1736</ele>
        <time>2020-07-30T17:12:58Z</time>
      </trkpt>
      <trkpt lat="45.86612" lon="6.45551">
        <ele>1731</ele>
        <time>2020-07-30T17:12:54Z</time>
      </trkpt>
      <trkpt lat="45.86613" lon="6.45559">
        <ele>1728</ele>
        <time>2020-07-30T17:12:51Z</time>
      </trkpt>
      <trkpt lat="45.86617" lon="6.45562">
        <ele>1725</ele>
        <time>2020-07-30T17:12:49Z</time>
      </trkpt>
      <trkpt lat="45.8662" lon="6.45561">
        <ele>1724</ele>
        <time>2020-07-30T17:12:47Z</time>
      </trkpt>
      <trkpt lat="45.8662" lon="6.45565">
        <ele>1722</ele>
        <time>2020-07-30T17:12:46Z</time>
      </trkpt>
      <trkpt lat="45.86622" lon="6.45564">
        <ele>1722</ele>
        <time>2020-07-30T17:12:45Z</time>
      </trkpt>
      <trkpt lat="45.86623" lon="6.45567">
        <ele>1720</ele>
        <time>2020-07-30T17:12:44Z</time>
      </trkpt>
      <trkpt lat="45.86626" lon="6.45567">
        <ele>1719</ele>
        <time>2020-07-30T17:12:42Z</time>
      </trkpt>
      <trkpt lat="45.8663" lon="6.45574">
        <ele>1714</ele>
        <time>2020-07-30T17:12:39Z</time>
      </trkpt>
      <trkpt lat="45.86637" lon="6.45579">
        <ele>1708</ele>
        <time>2020-07-30T17:12:35Z</time>
      </trkpt>
      <trkpt lat="45.86637" lon="6.45583">
        <ele>1707</ele>
        <time>2020-07-30T17:12:34Z</time>
      </trkpt>
      <trkpt lat="45.86641" lon="6.45583">
        <ele>1705</ele>
        <time>2020-07-30T17:12:32Z</time>
      </trkpt>
      <trkpt lat="45.86645" lon="6.45592">
        <ele>1701</ele>
        <time>2020-07-30T17:12:28Z</time>
      </trkpt>
      <trkpt lat="45.86661" lon="6.45612">
        <ele>1688</ele>
        <time>2020-07-30T17:12:17Z</time>
      </trkpt>
      <trkpt lat="45.86672" lon="6.45623">
        <ele>1680</ele>
        <time>2020-07-30T17:12:11Z</time>
      </trkpt>
      <trkpt lat="45.86676" lon="6.45623">
        <ele>1678</ele>
        <time>2020-07-30T17:12:09Z</time>
      </trkpt>
      <trkpt lat="45.86676" lon="6.4564">
        <ele>1674</ele>
        <time>2020-07-30T17:12:03Z</time>
      </trkpt>
      <trkpt lat="45.8668" lon="6.4565">
        <ele>1670</ele>
        <time>2020-07-30T17:11:59Z</time>
      </trkpt>
      <trkpt lat="45.86691" lon="6.45661">
        <ele>1662</ele>
        <time>2020-07-30T17:11:52Z</time>
      </trkpt>
      <trkpt lat="45.86693" lon="6.45667">
        <ele>1659</ele>
        <time>2020-07-30T17:11:50Z</time>
      </trkpt>
      <trkpt lat="45.867" lon="6.45666">
        <ele>1656</ele>
        <time>2020-07-30T17:11:46Z</time>
      </trkpt>
      <trkpt lat="45.86708" lon="6.45672">
        <ele>1651</ele>
        <time>2020-07-30T17:11:42Z</time>
      </trkpt>
      <trkpt lat="45.86714" lon="6.45689">
        <ele>1645</ele>
        <time>2020-07-30T17:11:35Z</time>
      </trkpt>
      <trkpt lat="45.86722" lon="6.45693">
        <ele>1641</ele>
        <time>2020-07-30T17:11:31Z</time>
      </trkpt>
      <trkpt lat="45.86725" lon="6.45691">
        <ele>1639</ele>
        <time>2020-07-30T17:11:29Z</time>
      </trkpt>
      <trkpt lat="45.86741" lon="6.45701">
        <ele>1630</ele>
        <time>2020-07-30T17:11:20Z</time>
      </trkpt>
      <trkpt lat="45.86756" lon="6.45701">
        <ele>1621</ele>
        <time>2020-07-30T17:11:13Z</time>
      </trkpt>
      <trkpt lat="45.86773" lon="6.45707">
        <ele>1610</ele>
        <time>2020-07-30T17:11:04Z</time>
      </trkpt>
      <trkpt lat="45.8678" lon="6.45712">
        <ele>1606</ele>
        <time>2020-07-30T17:11:00Z</time>
      </trkpt>
      <trkpt lat="45.86784" lon="6.4572">
        <ele>1603</ele>
        <time>2020-07-30T17:10:57Z</time>
      </trkpt>
      <trkpt lat="45.8679" lon="6.45721">
        <ele>1599</ele>
        <time>2020-07-30T17:10:54Z</time>
      </trkpt>
      <trkpt lat="45.86797" lon="6.45729">
        <ele>1594</ele>
        <time>2020-07-30T17:10:49Z</time>
      </trkpt>
      <trkpt lat="45.86805" lon="6.4573">
        <ele>1589</ele>
        <time>2020-07-30T17:10:45Z</time>
      </trkpt>
      <trkpt lat="45.8681" lon="6.45736">
        <ele>1586</ele>
        <time>2020-07-30T17:10:42Z</time>
      </trkpt>
      <trkpt lat="45.86815" lon="6.45737">
        <ele>1583</ele>
        <time>2020-07-30T17:10:40Z</time>
      </trkpt>
      <trkpt lat="45.86822" lon="6.45748">
        <ele>1578</ele>
        <time>2020-07-30T17:10:34Z</time>
      </trkpt>
      <trkpt lat="45.86827" lon="6.45747">
        <ele>1575</ele>
        <time>2020-07-30T17:10:32Z</time>
      </trkpt>
      <trkpt lat="45.86835" lon="6.45761">
        <ele>1569</ele>
        <time>2020-07-30T17:10:26Z</time>
      </trkpt>
      <trkpt lat="45.86851" lon="6.45764">
        <ele>1562</ele>
        <time>2020-07-30T17:10:17Z</time>
      </trkpt>
      <trkpt lat="45.86856" lon="6.45769">
        <ele>1560</ele>
        <time>2020-07-30T17:10:14Z</time>
      </trkpt>
      <trkpt lat="45.86857" lon="6.4578">
        <ele>1558</ele>
        <time>2020-07-30T17:10:11Z</time>
      </trkpt>
      <trkpt lat="45.86861" lon="6.45786">
        <ele>1556</ele>
        <time>2020-07-30T17:10:08Z</time>
      </trkpt>
      <trkpt lat="45.86888" lon="6.45794">
        <ele>1544</ele>
        <time>2020-07-30T17:09:54Z</time>
      </trkpt>
      <trkpt lat="45.86896" lon="6.45808">
        <ele>1540</ele>
        <time>2020-07-30T17:09:48Z</time>
      </trkpt>
      <trkpt lat="45.86901" lon="6.45812">
        <ele>1537</ele>
        <time>2020-07-30T17:09:45Z</time>
      </trkpt>
      <trkpt lat="45.86907" lon="6.45811">
        <ele>1535</ele>
        <time>2020-07-30T17:09:42Z</time>
      </trkpt>
      <trkpt lat="45.86915" lon="6.45823">
        <ele>1531</ele>
        <time>2020-07-30T17:09:36Z</time>
      </trkpt>
      <trkpt lat="45.86917" lon="6.45831">
        <ele>1529</ele>
        <time>2020-07-30T17:09:33Z</time>
      </trkpt>
      <trkpt lat="45.86918" lon="6.4585">
        <ele>1528</ele>
        <time>2020-07-30T17:09:26Z</time>
      </trkpt>
      <trkpt lat="45.8693" lon="6.4592">
        <ele>1523</ele>
        <time>2020-07-30T17:09:01Z</time>
      </trkpt>
      <trkpt lat="45.8694" lon="6.45952">
        <ele>1517</ele>
        <time>2020-07-30T17:08:49Z</time>
      </trkpt>
      <trkpt lat="45.86947" lon="6.46003">
        <ele>1513</ele>
        <time>2020-07-30T17:08:31Z</time>
      </trkpt>
      <trkpt lat="45.86956" lon="6.46046">
        <ele>1513</ele>
        <time>2020-07-30T17:08:15Z</time>
      </trkpt>
      <trkpt lat="45.86966" lon="6.46071">
        <ele>1512</ele>
        <time>2020-07-30T17:08:05Z</time>
      </trkpt>
      <trkpt lat="45.86978" lon="6.46082">
        <ele>1510</ele>
        <time>2020-07-30T17:07:58Z</time>
      </trkpt>
      <trkpt lat="45.87019" lon="6.461">
        <ele>1503</ele>
        <time>2020-07-30T17:07:37Z</time>
      </trkpt>
      <trkpt lat="45.87039" lon="6.46143">
        <ele>1501</ele>
        <time>2020-07-30T17:07:19Z</time>
      </trkpt>
      <trkpt lat="45.87048" lon="6.46173">
        <ele>1501</ele>
        <time>2020-07-30T17:07:07Z</time>
      </trkpt>
      <trkpt lat="45.87033" lon="6.46216">
        <ele>1502</ele>
        <time>2020-07-30T17:06:50Z</time>
      </trkpt>
      <trkpt lat="45.87031" lon="6.46236">
        <ele>1502</ele>
        <time>2020-07-30T17:06:43Z</time>
      </trkpt>
      <trkpt lat="45.87037" lon="6.46256">
        <ele>1501</ele>
        <time>2020-07-30T17:06:36Z</time>
      </trkpt>
      <trkpt lat="45.87049" lon="6.46272">
        <ele>1498</ele>
        <time>2020-07-30T17:06:28Z</time>
      </trkpt>
      <trkpt lat="45.87064" lon="6.463">
        <ele>1495</ele>
        <time>2020-07-30T17:06:15Z</time>
      </trkpt>
      <trkpt lat="45.87073" lon="6.46305">
        <ele>1494</ele>
        <time>2020-07-30T17:06:10Z</time>
      </trkpt>
      <trkpt lat="45.8709" lon="6.46304">
        <ele>1491</ele>
        <time>2020-07-30T17:06:02Z</time>
      </trkpt>
      <trkpt lat="45.871" lon="6.46306">
        <ele>1491</ele>
        <time>2020-07-30T17:05:57Z</time>
      </trkpt>
      <trkpt lat="45.87122" lon="6.46318">
        <ele>1488</ele>
        <time>2020-07-30T17:05:45Z</time>
      </trkpt>
      <trkpt lat="45.87141" lon="6.46343">
        <ele>1486</ele>
        <time>2020-07-30T17:05:32Z</time>
      </trkpt>
      <trkpt lat="45.87159" lon="6.46373">
        <ele>1485</ele>
        <time>2020-07-30T17:05:18Z</time>
      </trkpt>
      <trkpt lat="45.87185" lon="6.46424">
        <ele>1485</ele>
        <time>2020-07-30T17:04:56Z</time>
      </trkpt>
      <trkpt lat="45.87183" lon="6.46424">
        <ele>1485</ele>
        <time>2020-07-30T17:04:55Z</time>
      </trkpt>
      <trkpt lat="45.87185" lon="6.46429">
        <ele>1485</ele>
        <time>2020-07-30T17:04:53Z</time>
      </trkpt>
      <trkpt lat="45.87195" lon="6.4644">
        <ele>1485</ele>
        <time>2020-07-30T17:04:47Z</time>
      </trkpt>
      <trkpt lat="45.87241" lon="6.4647">
        <ele>1487</ele>
        <time>2020-07-30T17:04:22Z</time>
      </trkpt>
    </trkseg>
  </trk>
</gpx>